<?xml version="1.0" encoding="UTF-8" standalone="no" ?>
<gpx xmlns="http://www.topografix.com/GPX/1/1" xmlns:xsi="http://www.w3.org/2001/XMLSchema-instance" xsi:schemaLocation="http://www.topografix.com/GPX/1/1 http://www.topografix.com/GPX/1/1/gpx.xsd" version="1.1" creator="VisuGPX - https://www.visugpx.com">
  <metadata>
    <name>14-06-2017 Ciney - Ronvaux et retour.</name>
    <desc><![CDATA[Itinéraire de détente en vélo électrique (VTC). ]]></desc>
  </metadata>
  <trk>
    <name><![CDATA[Tracé 14 juin 2017 15:36:37]]></name>
    <trkseg>
      <trkpt lat="50.29453" lon="5.09549">
        <ele>275.23450429662</ele>
        <time>2017-06-14T13:36:37Z</time>
      </trkpt>
      <trkpt lat="50.29453" lon="5.09549">
        <ele>275.23450429662</ele>
        <time>2017-06-14T13:37:02Z</time>
      </trkpt>
      <trkpt lat="50.29445" lon="5.09536">
        <ele>243.43689206919</ele>
        <time>2017-06-14T13:37:06Z</time>
      </trkpt>
      <trkpt lat="50.29442" lon="5.09547">
        <ele>278.182368352</ele>
        <time>2017-06-14T13:37:17Z</time>
      </trkpt>
      <trkpt lat="50.29423" lon="5.09546">
        <ele>283.77994550191</ele>
        <time>2017-06-14T13:37:21Z</time>
      </trkpt>
      <trkpt lat="50.29418" lon="5.0955">
        <ele>255.11654882619</ele>
        <time>2017-06-14T13:37:35Z</time>
      </trkpt>
      <trkpt lat="50.29412" lon="5.09559">
        <ele>257.84784752897</ele>
        <time>2017-06-14T13:37:43Z</time>
      </trkpt>
      <trkpt lat="50.29423" lon="5.09577">
        <ele>260.23831794008</ele>
        <time>2017-06-14T13:37:48Z</time>
      </trkpt>
      <trkpt lat="50.29433" lon="5.09593">
        <ele>260.14608808618</ele>
        <time>2017-06-14T13:37:52Z</time>
      </trkpt>
      <trkpt lat="50.29439" lon="5.0961">
        <ele>259.94142586103</ele>
        <time>2017-06-14T13:37:56Z</time>
      </trkpt>
      <trkpt lat="50.29448" lon="5.09626">
        <ele>260.21915534661</ele>
        <time>2017-06-14T13:38:00Z</time>
      </trkpt>
      <trkpt lat="50.29462" lon="5.0965">
        <ele>261.15167494323</ele>
        <time>2017-06-14T13:38:05Z</time>
      </trkpt>
      <trkpt lat="50.29476" lon="5.09661">
        <ele>259.6126569108</ele>
        <time>2017-06-14T13:38:10Z</time>
      </trkpt>
      <trkpt lat="50.29488" lon="5.09654">
        <ele>251.32847451314</ele>
        <time>2017-06-14T13:38:14Z</time>
      </trkpt>
      <trkpt lat="50.29502" lon="5.09633">
        <ele>242.61972223286</ele>
        <time>2017-06-14T13:38:19Z</time>
      </trkpt>
      <trkpt lat="50.29605" lon="5.0948">
        <ele>247.07729787181</ele>
        <time>2017-06-14T13:38:44Z</time>
      </trkpt>
      <trkpt lat="50.29612" lon="5.09472">
        <ele>248.94176246242</ele>
        <time>2017-06-14T13:38:46Z</time>
      </trkpt>
      <trkpt lat="50.29642" lon="5.0932">
        <ele>254.341757808</ele>
        <time>2017-06-14T13:39:11Z</time>
      </trkpt>
      <trkpt lat="50.29655" lon="5.09285">
        <ele>254.25877465301</ele>
        <time>2017-06-14T13:39:16Z</time>
      </trkpt>
      <trkpt lat="50.29651" lon="5.09245">
        <ele>252.48493537575</ele>
        <time>2017-06-14T13:39:21Z</time>
      </trkpt>
      <trkpt lat="50.29643" lon="5.09203">
        <ele>253.033231524</ele>
        <time>2017-06-14T13:39:26Z</time>
      </trkpt>
      <trkpt lat="50.2964" lon="5.09164">
        <ele>252.75097758523</ele>
        <time>2017-06-14T13:39:30Z</time>
      </trkpt>
      <trkpt lat="50.29651" lon="5.09126">
        <ele>250.56450676329</ele>
        <time>2017-06-14T13:39:34Z</time>
      </trkpt>
      <trkpt lat="50.2966" lon="5.09088">
        <ele>247.25749079221</ele>
        <time>2017-06-14T13:39:38Z</time>
      </trkpt>
      <trkpt lat="50.29665" lon="5.09049">
        <ele>244.48609993963</ele>
        <time>2017-06-14T13:39:42Z</time>
      </trkpt>
      <trkpt lat="50.29661" lon="5.09011">
        <ele>242.07221361312</ele>
        <time>2017-06-14T13:39:46Z</time>
      </trkpt>
      <trkpt lat="50.29649" lon="5.08974">
        <ele>240.78914813453</ele>
        <time>2017-06-14T13:39:50Z</time>
      </trkpt>
      <trkpt lat="50.29637" lon="5.08936">
        <ele>238.38103493022</ele>
        <time>2017-06-14T13:39:54Z</time>
      </trkpt>
      <trkpt lat="50.29628" lon="5.08909">
        <ele>237.06435800991</ele>
        <time>2017-06-14T13:39:58Z</time>
      </trkpt>
      <trkpt lat="50.29626" lon="5.08903">
        <ele>236.93079560977</ele>
        <time>2017-06-14T13:40:00Z</time>
      </trkpt>
      <trkpt lat="50.2958" lon="5.08772">
        <ele>232.23934896567</ele>
        <time>2017-06-14T13:40:20Z</time>
      </trkpt>
      <trkpt lat="50.29558" lon="5.08721">
        <ele>235.19563178868</ele>
        <time>2017-06-14T13:40:25Z</time>
      </trkpt>
      <trkpt lat="50.29541" lon="5.08685">
        <ele>236.33832300956</ele>
        <time>2017-06-14T13:40:29Z</time>
      </trkpt>
      <trkpt lat="50.29524" lon="5.08643">
        <ele>235.6518339314</ele>
        <time>2017-06-14T13:40:34Z</time>
      </trkpt>
      <trkpt lat="50.2951" lon="5.08611">
        <ele>235.91866650933</ele>
        <time>2017-06-14T13:40:38Z</time>
      </trkpt>
      <trkpt lat="50.29497" lon="5.0858">
        <ele>237.20900843431</ele>
        <time>2017-06-14T13:40:42Z</time>
      </trkpt>
      <trkpt lat="50.29484" lon="5.0855">
        <ele>238.0669418629</ele>
        <time>2017-06-14T13:40:46Z</time>
      </trkpt>
      <trkpt lat="50.29469" lon="5.0851">
        <ele>239.45174930247</ele>
        <time>2017-06-14T13:40:51Z</time>
      </trkpt>
      <trkpt lat="50.29453" lon="5.08467">
        <ele>241.28174130014</ele>
        <time>2017-06-14T13:40:56Z</time>
      </trkpt>
      <trkpt lat="50.29443" lon="5.08433">
        <ele>241.75780399028</ele>
        <time>2017-06-14T13:41:00Z</time>
      </trkpt>
      <trkpt lat="50.29437" lon="5.08395">
        <ele>241.66826012865</ele>
        <time>2017-06-14T13:41:04Z</time>
      </trkpt>
      <trkpt lat="50.29435" lon="5.0836">
        <ele>242.13955566583</ele>
        <time>2017-06-14T13:41:08Z</time>
      </trkpt>
      <trkpt lat="50.29435" lon="5.08327">
        <ele>243.65163695761</ele>
        <time>2017-06-14T13:41:12Z</time>
      </trkpt>
      <trkpt lat="50.29433" lon="5.08289">
        <ele>245.34990444656</ele>
        <time>2017-06-14T13:41:17Z</time>
      </trkpt>
      <trkpt lat="50.29432" lon="5.08261">
        <ele>246.99655593954</ele>
        <time>2017-06-14T13:41:21Z</time>
      </trkpt>
      <trkpt lat="50.2943" lon="5.08226">
        <ele>249.33694663375</ele>
        <time>2017-06-14T13:41:26Z</time>
      </trkpt>
      <trkpt lat="50.2943" lon="5.08197">
        <ele>251.08419024293</ele>
        <time>2017-06-14T13:41:30Z</time>
      </trkpt>
      <trkpt lat="50.29429" lon="5.08166">
        <ele>252.17535778748</ele>
        <time>2017-06-14T13:41:34Z</time>
      </trkpt>
      <trkpt lat="50.29428" lon="5.08137">
        <ele>253.44604676456</ele>
        <time>2017-06-14T13:41:38Z</time>
      </trkpt>
      <trkpt lat="50.29427" lon="5.08104">
        <ele>255.00705806884</ele>
        <time>2017-06-14T13:41:42Z</time>
      </trkpt>
      <trkpt lat="50.29425" lon="5.08063">
        <ele>255.9922962133</ele>
        <time>2017-06-14T13:41:47Z</time>
      </trkpt>
      <trkpt lat="50.29424" lon="5.08031">
        <ele>256.99834469046</ele>
        <time>2017-06-14T13:41:51Z</time>
      </trkpt>
      <trkpt lat="50.29424" lon="5.07992">
        <ele>258.23020956599</ele>
        <time>2017-06-14T13:41:56Z</time>
      </trkpt>
      <trkpt lat="50.29424" lon="5.07961">
        <ele>259.44010518605</ele>
        <time>2017-06-14T13:42:00Z</time>
      </trkpt>
      <trkpt lat="50.29427" lon="5.07925">
        <ele>263.9676010388</ele>
        <time>2017-06-14T13:42:05Z</time>
      </trkpt>
      <trkpt lat="50.29427" lon="5.07886">
        <ele>265.97461242653</ele>
        <time>2017-06-14T13:42:10Z</time>
      </trkpt>
      <trkpt lat="50.29428" lon="5.07855">
        <ele>266.16284092299</ele>
        <time>2017-06-14T13:42:14Z</time>
      </trkpt>
      <trkpt lat="50.29428" lon="5.07823">
        <ele>267.67132635754</ele>
        <time>2017-06-14T13:42:18Z</time>
      </trkpt>
      <trkpt lat="50.29426" lon="5.07791">
        <ele>268.37946318521</ele>
        <time>2017-06-14T13:42:22Z</time>
      </trkpt>
      <trkpt lat="50.29425" lon="5.07751">
        <ele>269.57174899869</ele>
        <time>2017-06-14T13:42:27Z</time>
      </trkpt>
      <trkpt lat="50.29423" lon="5.07712">
        <ele>271.02318257517</ele>
        <time>2017-06-14T13:42:32Z</time>
      </trkpt>
      <trkpt lat="50.29421" lon="5.07683">
        <ele>273.69847040197</ele>
        <time>2017-06-14T13:42:36Z</time>
      </trkpt>
      <trkpt lat="50.29418" lon="5.07651">
        <ele>276.84871004452</ele>
        <time>2017-06-14T13:42:40Z</time>
      </trkpt>
      <trkpt lat="50.29413" lon="5.07618">
        <ele>277.58558234686</ele>
        <time>2017-06-14T13:42:44Z</time>
      </trkpt>
      <trkpt lat="50.29408" lon="5.07586">
        <ele>277.85813958129</ele>
        <time>2017-06-14T13:42:48Z</time>
      </trkpt>
      <trkpt lat="50.29402" lon="5.07553">
        <ele>277.97889822795</ele>
        <time>2017-06-14T13:42:52Z</time>
      </trkpt>
      <trkpt lat="50.29395" lon="5.07519">
        <ele>278.45445171967</ele>
        <time>2017-06-14T13:42:56Z</time>
      </trkpt>
      <trkpt lat="50.29388" lon="5.07484">
        <ele>278.89514682672</ele>
        <time>2017-06-14T13:43:00Z</time>
      </trkpt>
      <trkpt lat="50.29381" lon="5.07448">
        <ele>279.15827271153</ele>
        <time>2017-06-14T13:43:04Z</time>
      </trkpt>
      <trkpt lat="50.29372" lon="5.07404">
        <ele>280.24727055065</ele>
        <time>2017-06-14T13:43:09Z</time>
      </trkpt>
      <trkpt lat="50.29365" lon="5.07368">
        <ele>280.83652577748</ele>
        <time>2017-06-14T13:43:13Z</time>
      </trkpt>
      <trkpt lat="50.29358" lon="5.07332">
        <ele>280.98468542319</ele>
        <time>2017-06-14T13:43:17Z</time>
      </trkpt>
      <trkpt lat="50.2935" lon="5.07295">
        <ele>281.6443037808</ele>
        <time>2017-06-14T13:43:21Z</time>
      </trkpt>
      <trkpt lat="50.29341" lon="5.07249">
        <ele>281.52753753612</ele>
        <time>2017-06-14T13:43:26Z</time>
      </trkpt>
      <trkpt lat="50.29334" lon="5.07214">
        <ele>282.23288937144</ele>
        <time>2017-06-14T13:43:30Z</time>
      </trkpt>
      <trkpt lat="50.29325" lon="5.07169">
        <ele>283.3456041876</ele>
        <time>2017-06-14T13:43:35Z</time>
      </trkpt>
      <trkpt lat="50.29316" lon="5.07123">
        <ele>283.60823450836</ele>
        <time>2017-06-14T13:43:40Z</time>
      </trkpt>
      <trkpt lat="50.29308" lon="5.07086">
        <ele>284.61472288493</ele>
        <time>2017-06-14T13:43:44Z</time>
      </trkpt>
      <trkpt lat="50.293" lon="5.07049">
        <ele>284.98266961838</ele>
        <time>2017-06-14T13:43:48Z</time>
      </trkpt>
      <trkpt lat="50.29293" lon="5.07012">
        <ele>284.90483497653</ele>
        <time>2017-06-14T13:43:52Z</time>
      </trkpt>
      <trkpt lat="50.29285" lon="5.06976">
        <ele>284.84998034152</ele>
        <time>2017-06-14T13:43:56Z</time>
      </trkpt>
      <trkpt lat="50.29275" lon="5.06941">
        <ele>284.57186680529</ele>
        <time>2017-06-14T13:44:00Z</time>
      </trkpt>
      <trkpt lat="50.29263" lon="5.06905">
        <ele>286.11761652848</ele>
        <time>2017-06-14T13:44:04Z</time>
      </trkpt>
      <trkpt lat="50.29248" lon="5.06859">
        <ele>286.60354224314</ele>
        <time>2017-06-14T13:44:09Z</time>
      </trkpt>
      <trkpt lat="50.29234" lon="5.06821">
        <ele>285.90887595089</ele>
        <time>2017-06-14T13:44:13Z</time>
      </trkpt>
      <trkpt lat="50.29221" lon="5.06782">
        <ele>284.73041974209</ele>
        <time>2017-06-14T13:44:17Z</time>
      </trkpt>
      <trkpt lat="50.29208" lon="5.06741">
        <ele>283.77977420991</ele>
        <time>2017-06-14T13:44:21Z</time>
      </trkpt>
      <trkpt lat="50.29194" lon="5.06699">
        <ele>282.798941721</ele>
        <time>2017-06-14T13:44:25Z</time>
      </trkpt>
      <trkpt lat="50.2918" lon="5.06657">
        <ele>282.12634704954</ele>
        <time>2017-06-14T13:44:29Z</time>
      </trkpt>
      <trkpt lat="50.29164" lon="5.06607">
        <ele>281.32560949771</ele>
        <time>2017-06-14T13:44:34Z</time>
      </trkpt>
      <trkpt lat="50.29153" lon="5.06567">
        <ele>280.1349158649</ele>
        <time>2017-06-14T13:44:38Z</time>
      </trkpt>
      <trkpt lat="50.29147" lon="5.0653">
        <ele>280.60196074455</ele>
        <time>2017-06-14T13:44:42Z</time>
      </trkpt>
      <trkpt lat="50.29143" lon="5.06494">
        <ele>281.86834743998</ele>
        <time>2017-06-14T13:44:46Z</time>
      </trkpt>
      <trkpt lat="50.29141" lon="5.06456">
        <ele>282.83149398553</ele>
        <time>2017-06-14T13:44:50Z</time>
      </trkpt>
      <trkpt lat="50.29139" lon="5.06417">
        <ele>283.09094789685</ele>
        <time>2017-06-14T13:44:54Z</time>
      </trkpt>
      <trkpt lat="50.29137" lon="5.06372">
        <ele>282.10319324016</ele>
        <time>2017-06-14T13:44:58Z</time>
      </trkpt>
      <trkpt lat="50.29134" lon="5.06321">
        <ele>279.72652811534</ele>
        <time>2017-06-14T13:45:02Z</time>
      </trkpt>
      <trkpt lat="50.29132" lon="5.06261">
        <ele>277.77326550772</ele>
        <time>2017-06-14T13:45:06Z</time>
      </trkpt>
      <trkpt lat="50.2913" lon="5.06191">
        <ele>274.14357221552</ele>
        <time>2017-06-14T13:45:10Z</time>
      </trkpt>
      <trkpt lat="50.29136" lon="5.06095">
        <ele>268.02884041241</ele>
        <time>2017-06-14T13:45:15Z</time>
      </trkpt>
      <trkpt lat="50.29141" lon="5.06015">
        <ele>263.43707685645</ele>
        <time>2017-06-14T13:45:19Z</time>
      </trkpt>
      <trkpt lat="50.29146" lon="5.05937">
        <ele>259.15942464648</ele>
        <time>2017-06-14T13:45:23Z</time>
      </trkpt>
      <trkpt lat="50.29152" lon="5.05859">
        <ele>255.25419311186</ele>
        <time>2017-06-14T13:45:27Z</time>
      </trkpt>
      <trkpt lat="50.29159" lon="5.05768">
        <ele>251.90209796871</ele>
        <time>2017-06-14T13:45:32Z</time>
      </trkpt>
      <trkpt lat="50.2916" lon="5.05704">
        <ele>250.16729414661</ele>
        <time>2017-06-14T13:45:36Z</time>
      </trkpt>
      <trkpt lat="50.2915" lon="5.05632">
        <ele>249.17776810191</ele>
        <time>2017-06-14T13:45:41Z</time>
      </trkpt>
      <trkpt lat="50.29141" lon="5.05578">
        <ele>248.69083644943</ele>
        <time>2017-06-14T13:45:45Z</time>
      </trkpt>
      <trkpt lat="50.2914" lon="5.05515">
        <ele>250.33109666225</ele>
        <time>2017-06-14T13:45:50Z</time>
      </trkpt>
      <trkpt lat="50.2915" lon="5.05472">
        <ele>251.3981566006</ele>
        <time>2017-06-14T13:45:54Z</time>
      </trkpt>
      <trkpt lat="50.29163" lon="5.05426">
        <ele>252.90941431687</ele>
        <time>2017-06-14T13:45:59Z</time>
      </trkpt>
      <trkpt lat="50.29173" lon="5.05388">
        <ele>253.42396197576</ele>
        <time>2017-06-14T13:46:03Z</time>
      </trkpt>
      <trkpt lat="50.29182" lon="5.05352">
        <ele>252.48811612757</ele>
        <time>2017-06-14T13:46:07Z</time>
      </trkpt>
      <trkpt lat="50.29191" lon="5.05307">
        <ele>253.39531762005</ele>
        <time>2017-06-14T13:46:12Z</time>
      </trkpt>
      <trkpt lat="50.29199" lon="5.0526">
        <ele>253.46636819619</ele>
        <time>2017-06-14T13:46:17Z</time>
      </trkpt>
      <trkpt lat="50.29205" lon="5.05221">
        <ele>253.44589759048</ele>
        <time>2017-06-14T13:46:21Z</time>
      </trkpt>
      <trkpt lat="50.2921" lon="5.05179">
        <ele>253.10063223844</ele>
        <time>2017-06-14T13:46:25Z</time>
      </trkpt>
      <trkpt lat="50.29212" lon="5.05125">
        <ele>252.80699274954</ele>
        <time>2017-06-14T13:46:30Z</time>
      </trkpt>
      <trkpt lat="50.29211" lon="5.05084">
        <ele>253.54674416591</ele>
        <time>2017-06-14T13:46:34Z</time>
      </trkpt>
      <trkpt lat="50.29214" lon="5.05044">
        <ele>251.8954952384</ele>
        <time>2017-06-14T13:46:38Z</time>
      </trkpt>
      <trkpt lat="50.29213" lon="5.05002">
        <ele>250.43331623055</ele>
        <time>2017-06-14T13:46:42Z</time>
      </trkpt>
      <trkpt lat="50.29212" lon="5.0496">
        <ele>248.77638074976</ele>
        <time>2017-06-14T13:46:46Z</time>
      </trkpt>
      <trkpt lat="50.29214" lon="5.0492">
        <ele>248.79284893247</ele>
        <time>2017-06-14T13:46:50Z</time>
      </trkpt>
      <trkpt lat="50.29218" lon="5.04881">
        <ele>248.64241237112</ele>
        <time>2017-06-14T13:46:54Z</time>
      </trkpt>
      <trkpt lat="50.29226" lon="5.04836">
        <ele>249.95762573583</ele>
        <time>2017-06-14T13:46:59Z</time>
      </trkpt>
      <trkpt lat="50.29225" lon="5.04798">
        <ele>251.58093280802</ele>
        <time>2017-06-14T13:47:03Z</time>
      </trkpt>
      <trkpt lat="50.29216" lon="5.04763">
        <ele>252.97202627431</ele>
        <time>2017-06-14T13:47:07Z</time>
      </trkpt>
      <trkpt lat="50.29199" lon="5.04732">
        <ele>252.86382476722</ele>
        <time>2017-06-14T13:47:11Z</time>
      </trkpt>
      <trkpt lat="50.2918" lon="5.04708">
        <ele>253.20607302345</ele>
        <time>2017-06-14T13:47:15Z</time>
      </trkpt>
      <trkpt lat="50.29161" lon="5.04686">
        <ele>254.7242690663</ele>
        <time>2017-06-14T13:47:19Z</time>
      </trkpt>
      <trkpt lat="50.29137" lon="5.04659">
        <ele>257.79009250549</ele>
        <time>2017-06-14T13:47:24Z</time>
      </trkpt>
      <trkpt lat="50.29114" lon="5.04626">
        <ele>259.24188230049</ele>
        <time>2017-06-14T13:47:29Z</time>
      </trkpt>
      <trkpt lat="50.29095" lon="5.04588">
        <ele>259.41446753937</ele>
        <time>2017-06-14T13:47:34Z</time>
      </trkpt>
      <trkpt lat="50.29081" lon="5.04558">
        <ele>259.93995926993</ele>
        <time>2017-06-14T13:47:38Z</time>
      </trkpt>
      <trkpt lat="50.29065" lon="5.04517">
        <ele>260.01037052183</ele>
        <time>2017-06-14T13:47:43Z</time>
      </trkpt>
      <trkpt lat="50.29052" lon="5.04485">
        <ele>260.19706825005</ele>
        <time>2017-06-14T13:47:47Z</time>
      </trkpt>
      <trkpt lat="50.29036" lon="5.04444">
        <ele>260.43711056655</ele>
        <time>2017-06-14T13:47:52Z</time>
      </trkpt>
      <trkpt lat="50.29023" lon="5.04402">
        <ele>261.35706408279</ele>
        <time>2017-06-14T13:47:57Z</time>
      </trkpt>
      <trkpt lat="50.29014" lon="5.04367">
        <ele>262.0929566692</ele>
        <time>2017-06-14T13:48:01Z</time>
      </trkpt>
      <trkpt lat="50.29001" lon="5.04323">
        <ele>262.00871117545</ele>
        <time>2017-06-14T13:48:06Z</time>
      </trkpt>
      <trkpt lat="50.2899" lon="5.0429">
        <ele>261.91041677301</ele>
        <time>2017-06-14T13:48:10Z</time>
      </trkpt>
      <trkpt lat="50.28966" lon="5.04266">
        <ele>262.82542307168</ele>
        <time>2017-06-14T13:48:15Z</time>
      </trkpt>
      <trkpt lat="50.28943" lon="5.04271">
        <ele>263.70550926753</ele>
        <time>2017-06-14T13:48:19Z</time>
      </trkpt>
      <trkpt lat="50.28913" lon="5.04291">
        <ele>263.20428668236</ele>
        <time>2017-06-14T13:48:24Z</time>
      </trkpt>
      <trkpt lat="50.28886" lon="5.04315">
        <ele>262.19158161404</ele>
        <time>2017-06-14T13:48:28Z</time>
      </trkpt>
      <trkpt lat="50.28851" lon="5.0434">
        <ele>259.95191704751</ele>
        <time>2017-06-14T13:48:33Z</time>
      </trkpt>
      <trkpt lat="50.28817" lon="5.0436">
        <ele>259.20049878823</ele>
        <time>2017-06-14T13:48:38Z</time>
      </trkpt>
      <trkpt lat="50.28794" lon="5.04376">
        <ele>259.71715032261</ele>
        <time>2017-06-14T13:48:42Z</time>
      </trkpt>
      <trkpt lat="50.28768" lon="5.04398">
        <ele>259.91983413286</ele>
        <time>2017-06-14T13:48:47Z</time>
      </trkpt>
      <trkpt lat="50.28747" lon="5.04417">
        <ele>261.06558524454</ele>
        <time>2017-06-14T13:48:51Z</time>
      </trkpt>
      <trkpt lat="50.28726" lon="5.04436">
        <ele>262.60628140686</ele>
        <time>2017-06-14T13:48:55Z</time>
      </trkpt>
      <trkpt lat="50.28705" lon="5.04456">
        <ele>263.51160568874</ele>
        <time>2017-06-14T13:48:59Z</time>
      </trkpt>
      <trkpt lat="50.28686" lon="5.04474">
        <ele>264.90818065995</ele>
        <time>2017-06-14T13:49:03Z</time>
      </trkpt>
      <trkpt lat="50.28661" lon="5.04502">
        <ele>268.67175942713</ele>
        <time>2017-06-14T13:49:08Z</time>
      </trkpt>
      <trkpt lat="50.28636" lon="5.04528">
        <ele>269.8596753286</ele>
        <time>2017-06-14T13:49:13Z</time>
      </trkpt>
      <trkpt lat="50.28615" lon="5.04552">
        <ele>268.95511578815</ele>
        <time>2017-06-14T13:49:17Z</time>
      </trkpt>
      <trkpt lat="50.28589" lon="5.04579">
        <ele>267.98281024384</ele>
        <time>2017-06-14T13:49:22Z</time>
      </trkpt>
      <trkpt lat="50.28569" lon="5.04599">
        <ele>268.59217507484</ele>
        <time>2017-06-14T13:49:26Z</time>
      </trkpt>
      <trkpt lat="50.28553" lon="5.04613">
        <ele>268.98779679512</ele>
        <time>2017-06-14T13:49:30Z</time>
      </trkpt>
      <trkpt lat="50.28536" lon="5.0463">
        <ele>267.27017642806</ele>
        <time>2017-06-14T13:49:34Z</time>
      </trkpt>
      <trkpt lat="50.2852" lon="5.04648">
        <ele>267.15965561568</ele>
        <time>2017-06-14T13:49:38Z</time>
      </trkpt>
      <trkpt lat="50.28505" lon="5.0467">
        <ele>269.83318178795</ele>
        <time>2017-06-14T13:49:43Z</time>
      </trkpt>
      <trkpt lat="50.28492" lon="5.0469">
        <ele>272.24935051161</ele>
        <time>2017-06-14T13:49:47Z</time>
      </trkpt>
      <trkpt lat="50.28478" lon="5.0471">
        <ele>275.80985472336</ele>
        <time>2017-06-14T13:49:51Z</time>
      </trkpt>
      <trkpt lat="50.28457" lon="5.04734">
        <ele>279.43641354289</ele>
        <time>2017-06-14T13:49:56Z</time>
      </trkpt>
      <trkpt lat="50.28439" lon="5.04753">
        <ele>280.80581747111</ele>
        <time>2017-06-14T13:50:00Z</time>
      </trkpt>
      <trkpt lat="50.28424" lon="5.04769">
        <ele>283.22282475792</ele>
        <time>2017-06-14T13:50:04Z</time>
      </trkpt>
      <trkpt lat="50.2841" lon="5.04781">
        <ele>285.67544109236</ele>
        <time>2017-06-14T13:50:08Z</time>
      </trkpt>
      <trkpt lat="50.2839" lon="5.04778">
        <ele>284.88301434402</ele>
        <time>2017-06-14T13:50:13Z</time>
      </trkpt>
      <trkpt lat="50.28366" lon="5.04767">
        <ele>283.30719676352</ele>
        <time>2017-06-14T13:50:17Z</time>
      </trkpt>
      <trkpt lat="50.28337" lon="5.04759">
        <ele>279.62546101014</ele>
        <time>2017-06-14T13:50:22Z</time>
      </trkpt>
      <trkpt lat="50.28304" lon="5.04754">
        <ele>277.93183346968</ele>
        <time>2017-06-14T13:50:27Z</time>
      </trkpt>
      <trkpt lat="50.28274" lon="5.04745">
        <ele>273.69373989312</ele>
        <time>2017-06-14T13:50:31Z</time>
      </trkpt>
      <trkpt lat="50.28231" lon="5.04737">
        <ele>269.4302603164</ele>
        <time>2017-06-14T13:50:36Z</time>
      </trkpt>
      <trkpt lat="50.28195" lon="5.04734">
        <ele>270.57908218515</ele>
        <time>2017-06-14T13:50:40Z</time>
      </trkpt>
      <trkpt lat="50.28157" lon="5.04723">
        <ele>273.53497795572</ele>
        <time>2017-06-14T13:50:44Z</time>
      </trkpt>
      <trkpt lat="50.28119" lon="5.04707">
        <ele>277.96583807043</ele>
        <time>2017-06-14T13:50:49Z</time>
      </trkpt>
      <trkpt lat="50.2809" lon="5.04694">
        <ele>279.37152900139</ele>
        <time>2017-06-14T13:50:53Z</time>
      </trkpt>
      <trkpt lat="50.28054" lon="5.04679">
        <ele>278.64905965857</ele>
        <time>2017-06-14T13:50:58Z</time>
      </trkpt>
      <trkpt lat="50.28028" lon="5.04667">
        <ele>278.41234814279</ele>
        <time>2017-06-14T13:51:02Z</time>
      </trkpt>
      <trkpt lat="50.27995" lon="5.04654">
        <ele>277.15452217307</ele>
        <time>2017-06-14T13:51:07Z</time>
      </trkpt>
      <trkpt lat="50.27961" lon="5.04641">
        <ele>276.56040662849</ele>
        <time>2017-06-14T13:51:12Z</time>
      </trkpt>
      <trkpt lat="50.27937" lon="5.04631">
        <ele>276.78352170677</ele>
        <time>2017-06-14T13:51:16Z</time>
      </trkpt>
      <trkpt lat="50.2791" lon="5.04621">
        <ele>278.66782574935</ele>
        <time>2017-06-14T13:51:20Z</time>
      </trkpt>
      <trkpt lat="50.27887" lon="5.04611">
        <ele>280.88795608954</ele>
        <time>2017-06-14T13:51:24Z</time>
      </trkpt>
      <trkpt lat="50.27863" lon="5.046">
        <ele>283.58735512918</ele>
        <time>2017-06-14T13:51:28Z</time>
      </trkpt>
      <trkpt lat="50.27836" lon="5.04591">
        <ele>284.80838207586</ele>
        <time>2017-06-14T13:51:32Z</time>
      </trkpt>
      <trkpt lat="50.27807" lon="5.0458">
        <ele>284.32499530608</ele>
        <time>2017-06-14T13:51:36Z</time>
      </trkpt>
      <trkpt lat="50.27772" lon="5.04567">
        <ele>281.99411591726</ele>
        <time>2017-06-14T13:51:41Z</time>
      </trkpt>
      <trkpt lat="50.27736" lon="5.04553">
        <ele>280.31229256981</ele>
        <time>2017-06-14T13:51:46Z</time>
      </trkpt>
      <trkpt lat="50.27706" lon="5.04545">
        <ele>280.28815028295</ele>
        <time>2017-06-14T13:51:50Z</time>
      </trkpt>
      <trkpt lat="50.27677" lon="5.04546">
        <ele>280.9360343446</ele>
        <time>2017-06-14T13:51:54Z</time>
      </trkpt>
      <trkpt lat="50.27649" lon="5.04557">
        <ele>279.97071919437</ele>
        <time>2017-06-14T13:51:58Z</time>
      </trkpt>
      <trkpt lat="50.27615" lon="5.04572">
        <ele>278.94187569357</ele>
        <time>2017-06-14T13:52:03Z</time>
      </trkpt>
      <trkpt lat="50.27584" lon="5.04582">
        <ele>279.74561575103</ele>
        <time>2017-06-14T13:52:07Z</time>
      </trkpt>
      <trkpt lat="50.27547" lon="5.04588">
        <ele>278.4824272309</ele>
        <time>2017-06-14T13:52:12Z</time>
      </trkpt>
      <trkpt lat="50.27513" lon="5.0459">
        <ele>278.0108301858</ele>
        <time>2017-06-14T13:52:17Z</time>
      </trkpt>
      <trkpt lat="50.27485" lon="5.0459">
        <ele>278.19564775026</ele>
        <time>2017-06-14T13:52:21Z</time>
      </trkpt>
      <trkpt lat="50.27458" lon="5.04588">
        <ele>279.20109990624</ele>
        <time>2017-06-14T13:52:25Z</time>
      </trkpt>
      <trkpt lat="50.27427" lon="5.04587">
        <ele>280.47119963113</ele>
        <time>2017-06-14T13:52:30Z</time>
      </trkpt>
      <trkpt lat="50.27397" lon="5.04588">
        <ele>282.22424387467</ele>
        <time>2017-06-14T13:52:35Z</time>
      </trkpt>
      <trkpt lat="50.27369" lon="5.04597">
        <ele>283.09381466866</ele>
        <time>2017-06-14T13:52:40Z</time>
      </trkpt>
      <trkpt lat="50.27346" lon="5.04606">
        <ele>284.22999128372</ele>
        <time>2017-06-14T13:52:45Z</time>
      </trkpt>
      <trkpt lat="50.27321" lon="5.04617">
        <ele>284.58723200307</ele>
        <time>2017-06-14T13:52:49Z</time>
      </trkpt>
      <trkpt lat="50.27292" lon="5.04627">
        <ele>283.40637525215</ele>
        <time>2017-06-14T13:52:54Z</time>
      </trkpt>
      <trkpt lat="50.27272" lon="5.04622">
        <ele>283.51936236189</ele>
        <time>2017-06-14T13:52:58Z</time>
      </trkpt>
      <trkpt lat="50.2725" lon="5.04599">
        <ele>284.30301551998</ele>
        <time>2017-06-14T13:53:03Z</time>
      </trkpt>
      <trkpt lat="50.27235" lon="5.04575">
        <ele>286.63802241388</ele>
        <time>2017-06-14T13:53:07Z</time>
      </trkpt>
      <trkpt lat="50.27214" lon="5.0454">
        <ele>285.43701217083</ele>
        <time>2017-06-14T13:53:12Z</time>
      </trkpt>
      <trkpt lat="50.27197" lon="5.04493">
        <ele>282.75317927982</ele>
        <time>2017-06-14T13:53:17Z</time>
      </trkpt>
      <trkpt lat="50.27184" lon="5.04455">
        <ele>280.57637493336</ele>
        <time>2017-06-14T13:53:21Z</time>
      </trkpt>
      <trkpt lat="50.27166" lon="5.04403">
        <ele>277.75518969599</ele>
        <time>2017-06-14T13:53:26Z</time>
      </trkpt>
      <trkpt lat="50.27153" lon="5.04364">
        <ele>278.83229561672</ele>
        <time>2017-06-14T13:53:30Z</time>
      </trkpt>
      <trkpt lat="50.27138" lon="5.04322">
        <ele>278.47602648976</ele>
        <time>2017-06-14T13:53:34Z</time>
      </trkpt>
      <trkpt lat="50.27122" lon="5.04281">
        <ele>277.53223715349</ele>
        <time>2017-06-14T13:53:38Z</time>
      </trkpt>
      <trkpt lat="50.27099" lon="5.0422">
        <ele>273.95775029216</ele>
        <time>2017-06-14T13:53:43Z</time>
      </trkpt>
      <trkpt lat="50.27085" lon="5.04181">
        <ele>272.93469834097</ele>
        <time>2017-06-14T13:53:47Z</time>
      </trkpt>
      <trkpt lat="50.27075" lon="5.04145">
        <ele>273.73370461507</ele>
        <time>2017-06-14T13:53:51Z</time>
      </trkpt>
      <trkpt lat="50.27066" lon="5.04113">
        <ele>275.11305299403</ele>
        <time>2017-06-14T13:53:55Z</time>
      </trkpt>
      <trkpt lat="50.27053" lon="5.0408">
        <ele>276.57297306255</ele>
        <time>2017-06-14T13:54:00Z</time>
      </trkpt>
      <trkpt lat="50.27043" lon="5.04057">
        <ele>277.25208409939</ele>
        <time>2017-06-14T13:54:04Z</time>
      </trkpt>
      <trkpt lat="50.2703" lon="5.04031">
        <ele>276.41894366876</ele>
        <time>2017-06-14T13:54:08Z</time>
      </trkpt>
      <trkpt lat="50.27016" lon="5.04">
        <ele>274.89471318928</ele>
        <time>2017-06-14T13:54:13Z</time>
      </trkpt>
      <trkpt lat="50.27003" lon="5.03973">
        <ele>273.23900191999</ele>
        <time>2017-06-14T13:54:17Z</time>
      </trkpt>
      <trkpt lat="50.26988" lon="5.03943">
        <ele>270.04849828748</ele>
        <time>2017-06-14T13:54:22Z</time>
      </trkpt>
      <trkpt lat="50.26978" lon="5.03922">
        <ele>268.76662937303</ele>
        <time>2017-06-14T13:54:26Z</time>
      </trkpt>
      <trkpt lat="50.26966" lon="5.03896">
        <ele>267.24556519946</ele>
        <time>2017-06-14T13:54:31Z</time>
      </trkpt>
      <trkpt lat="50.26957" lon="5.03875">
        <ele>266.69192449512</ele>
        <time>2017-06-14T13:54:35Z</time>
      </trkpt>
      <trkpt lat="50.26957" lon="5.03838">
        <ele>264.69425958377</ele>
        <time>2017-06-14T13:54:40Z</time>
      </trkpt>
      <trkpt lat="50.26958" lon="5.03808">
        <ele>263.97136912605</ele>
        <time>2017-06-14T13:54:44Z</time>
      </trkpt>
      <trkpt lat="50.2696" lon="5.0378">
        <ele>262.27952946761</ele>
        <time>2017-06-14T13:54:48Z</time>
      </trkpt>
      <trkpt lat="50.26968" lon="5.03754">
        <ele>262.82702010374</ele>
        <time>2017-06-14T13:54:52Z</time>
      </trkpt>
      <trkpt lat="50.26976" lon="5.03726">
        <ele>264.17272211514</ele>
        <time>2017-06-14T13:54:56Z</time>
      </trkpt>
      <trkpt lat="50.26984" lon="5.03697">
        <ele>265.86064920274</ele>
        <time>2017-06-14T13:55:00Z</time>
      </trkpt>
      <trkpt lat="50.26993" lon="5.03667">
        <ele>267.14614749724</ele>
        <time>2017-06-14T13:55:04Z</time>
      </trkpt>
      <trkpt lat="50.27001" lon="5.03636">
        <ele>268.552000446</ele>
        <time>2017-06-14T13:55:08Z</time>
      </trkpt>
      <trkpt lat="50.27006" lon="5.03607">
        <ele>269.27798382445</ele>
        <time>2017-06-14T13:55:12Z</time>
      </trkpt>
      <trkpt lat="50.27008" lon="5.03568">
        <ele>268.77464433472</ele>
        <time>2017-06-14T13:55:17Z</time>
      </trkpt>
      <trkpt lat="50.27008" lon="5.03526">
        <ele>269.00768083777</ele>
        <time>2017-06-14T13:55:22Z</time>
      </trkpt>
      <trkpt lat="50.27012" lon="5.03495">
        <ele>270.52680391764</ele>
        <time>2017-06-14T13:55:26Z</time>
      </trkpt>
      <trkpt lat="50.27018" lon="5.03455">
        <ele>271.2582256232</ele>
        <time>2017-06-14T13:55:31Z</time>
      </trkpt>
      <trkpt lat="50.27025" lon="5.03429">
        <ele>271.48296243777</ele>
        <time>2017-06-14T13:55:35Z</time>
      </trkpt>
      <trkpt lat="50.27034" lon="5.03398">
        <ele>273.80955631303</ele>
        <time>2017-06-14T13:55:39Z</time>
      </trkpt>
      <trkpt lat="50.27043" lon="5.03359">
        <ele>275.69402465671</ele>
        <time>2017-06-14T13:55:44Z</time>
      </trkpt>
      <trkpt lat="50.27054" lon="5.0334">
        <ele>275.79101756005</ele>
        <time>2017-06-14T13:55:48Z</time>
      </trkpt>
      <trkpt lat="50.27068" lon="5.03324">
        <ele>274.60354121234</ele>
        <time>2017-06-14T13:55:52Z</time>
      </trkpt>
      <trkpt lat="50.27089" lon="5.033">
        <ele>272.46686808595</ele>
        <time>2017-06-14T13:55:57Z</time>
      </trkpt>
      <trkpt lat="50.27111" lon="5.03277">
        <ele>271.16528833941</ele>
        <time>2017-06-14T13:56:02Z</time>
      </trkpt>
      <trkpt lat="50.27127" lon="5.03261">
        <ele>270.49476513518</ele>
        <time>2017-06-14T13:56:06Z</time>
      </trkpt>
      <trkpt lat="50.27143" lon="5.03247">
        <ele>269.99257476368</ele>
        <time>2017-06-14T13:56:10Z</time>
      </trkpt>
      <trkpt lat="50.2716" lon="5.03234">
        <ele>269.38660434918</ele>
        <time>2017-06-14T13:56:14Z</time>
      </trkpt>
      <trkpt lat="50.27177" lon="5.0322">
        <ele>268.15934088072</ele>
        <time>2017-06-14T13:56:18Z</time>
      </trkpt>
      <trkpt lat="50.27192" lon="5.03209">
        <ele>266.93879640189</ele>
        <time>2017-06-14T13:56:22Z</time>
      </trkpt>
      <trkpt lat="50.27214" lon="5.03196">
        <ele>268.9667473823</ele>
        <time>2017-06-14T13:56:27Z</time>
      </trkpt>
      <trkpt lat="50.27231" lon="5.03185">
        <ele>268.93294781749</ele>
        <time>2017-06-14T13:56:31Z</time>
      </trkpt>
      <trkpt lat="50.27245" lon="5.0317">
        <ele>267.61204415561</ele>
        <time>2017-06-14T13:56:36Z</time>
      </trkpt>
      <trkpt lat="50.27241" lon="5.03158">
        <ele>267.25650159437</ele>
        <time>2017-06-14T13:56:41Z</time>
      </trkpt>
      <trkpt lat="50.2724" lon="5.03136">
        <ele>265.27877181696</ele>
        <time>2017-06-14T13:56:46Z</time>
      </trkpt>
      <trkpt lat="50.27236" lon="5.03121">
        <ele>258.79471172155</ele>
        <time>2017-06-14T13:56:49Z</time>
      </trkpt>
      <trkpt lat="50.27196" lon="5.03054">
        <ele>255.6952196413</ele>
        <time>2017-06-14T13:57:06Z</time>
      </trkpt>
      <trkpt lat="50.27197" lon="5.03043">
        <ele>256.02655526499</ele>
        <time>2017-06-14T13:57:11Z</time>
      </trkpt>
      <trkpt lat="50.27206" lon="5.0303">
        <ele>257.62567223638</ele>
        <time>2017-06-14T13:57:16Z</time>
      </trkpt>
      <trkpt lat="50.27217" lon="5.03026">
        <ele>258.93622581776</ele>
        <time>2017-06-14T13:57:20Z</time>
      </trkpt>
      <trkpt lat="50.27232" lon="5.03023">
        <ele>260.15497379007</ele>
        <time>2017-06-14T13:57:25Z</time>
      </trkpt>
      <trkpt lat="50.27242" lon="5.03022">
        <ele>260.79553857354</ele>
        <time>2017-06-14T13:57:29Z</time>
      </trkpt>
      <trkpt lat="50.27262" lon="5.03017">
        <ele>264.02404150738</ele>
        <time>2017-06-14T13:57:34Z</time>
      </trkpt>
      <trkpt lat="50.27277" lon="5.03006">
        <ele>265.11851367335</ele>
        <time>2017-06-14T13:57:38Z</time>
      </trkpt>
      <trkpt lat="50.27293" lon="5.02994">
        <ele>263.82613202331</ele>
        <time>2017-06-14T13:57:42Z</time>
      </trkpt>
      <trkpt lat="50.27312" lon="5.0298">
        <ele>265.61993083879</ele>
        <time>2017-06-14T13:57:47Z</time>
      </trkpt>
      <trkpt lat="50.27327" lon="5.02969">
        <ele>268.09758120248</ele>
        <time>2017-06-14T13:57:51Z</time>
      </trkpt>
      <trkpt lat="50.27344" lon="5.02955">
        <ele>271.92322974773</ele>
        <time>2017-06-14T13:57:55Z</time>
      </trkpt>
      <trkpt lat="50.27367" lon="5.02935">
        <ele>274.91441988601</ele>
        <time>2017-06-14T13:58:00Z</time>
      </trkpt>
      <trkpt lat="50.27386" lon="5.02917">
        <ele>274.29035575946</ele>
        <time>2017-06-14T13:58:04Z</time>
      </trkpt>
      <trkpt lat="50.27404" lon="5.029">
        <ele>274.68925699389</ele>
        <time>2017-06-14T13:58:09Z</time>
      </trkpt>
      <trkpt lat="50.27419" lon="5.02884">
        <ele>275.25568962886</ele>
        <time>2017-06-14T13:58:13Z</time>
      </trkpt>
      <trkpt lat="50.27435" lon="5.0287">
        <ele>277.09115408915</ele>
        <time>2017-06-14T13:58:17Z</time>
      </trkpt>
      <trkpt lat="50.27455" lon="5.02851">
        <ele>276.95093149448</ele>
        <time>2017-06-14T13:58:22Z</time>
      </trkpt>
      <trkpt lat="50.27469" lon="5.02835">
        <ele>276.79730983499</ele>
        <time>2017-06-14T13:58:27Z</time>
      </trkpt>
      <trkpt lat="50.2748" lon="5.02826">
        <ele>277.00457468973</ele>
        <time>2017-06-14T13:58:31Z</time>
      </trkpt>
      <trkpt lat="50.27493" lon="5.02815">
        <ele>279.47797864742</ele>
        <time>2017-06-14T13:58:35Z</time>
      </trkpt>
      <trkpt lat="50.27506" lon="5.02803">
        <ele>281.04976494812</ele>
        <time>2017-06-14T13:58:39Z</time>
      </trkpt>
      <trkpt lat="50.27521" lon="5.02789">
        <ele>281.96002553414</ele>
        <time>2017-06-14T13:58:43Z</time>
      </trkpt>
      <trkpt lat="50.27535" lon="5.02769">
        <ele>280.63412700244</ele>
        <time>2017-06-14T13:58:47Z</time>
      </trkpt>
      <trkpt lat="50.27547" lon="5.02746">
        <ele>279.46008112701</ele>
        <time>2017-06-14T13:58:51Z</time>
      </trkpt>
      <trkpt lat="50.27554" lon="5.02734">
        <ele>279.01325800548</ele>
        <time>2017-06-14T13:58:55Z</time>
      </trkpt>
      <trkpt lat="50.27561" lon="5.02723">
        <ele>278.37483222466</ele>
        <time>2017-06-14T13:58:59Z</time>
      </trkpt>
      <trkpt lat="50.27571" lon="5.0271">
        <ele>277.34049167522</ele>
        <time>2017-06-14T13:59:04Z</time>
      </trkpt>
      <trkpt lat="50.2758" lon="5.02691">
        <ele>276.15200652653</ele>
        <time>2017-06-14T13:59:09Z</time>
      </trkpt>
      <trkpt lat="50.27578" lon="5.02671">
        <ele>275.23253793865</ele>
        <time>2017-06-14T13:59:13Z</time>
      </trkpt>
      <trkpt lat="50.27567" lon="5.02639">
        <ele>268.16613821196</ele>
        <time>2017-06-14T13:59:18Z</time>
      </trkpt>
      <trkpt lat="50.27557" lon="5.02617">
        <ele>267.7163906572</ele>
        <time>2017-06-14T13:59:23Z</time>
      </trkpt>
      <trkpt lat="50.27541" lon="5.02611">
        <ele>260.4157853621</ele>
        <time>2017-06-14T13:59:27Z</time>
      </trkpt>
      <trkpt lat="50.27518" lon="5.02604">
        <ele>253.73601993366</ele>
        <time>2017-06-14T13:59:32Z</time>
      </trkpt>
      <trkpt lat="50.27492" lon="5.02595">
        <ele>246.1600631728</ele>
        <time>2017-06-14T13:59:37Z</time>
      </trkpt>
      <trkpt lat="50.27473" lon="5.02588">
        <ele>241.64922562317</ele>
        <time>2017-06-14T13:59:41Z</time>
      </trkpt>
      <trkpt lat="50.27456" lon="5.02577">
        <ele>242.18817484052</ele>
        <time>2017-06-14T13:59:45Z</time>
      </trkpt>
      <trkpt lat="50.27438" lon="5.02572">
        <ele>243.01546377953</ele>
        <time>2017-06-14T13:59:49Z</time>
      </trkpt>
      <trkpt lat="50.27419" lon="5.02562">
        <ele>245.72695445068</ele>
        <time>2017-06-14T13:59:54Z</time>
      </trkpt>
      <trkpt lat="50.27402" lon="5.02554">
        <ele>249.94077684775</ele>
        <time>2017-06-14T13:59:58Z</time>
      </trkpt>
      <trkpt lat="50.27383" lon="5.02544">
        <ele>253.82385292046</ele>
        <time>2017-06-14T14:00:02Z</time>
      </trkpt>
      <trkpt lat="50.27358" lon="5.02532">
        <ele>255.08092311683</ele>
        <time>2017-06-14T14:00:07Z</time>
      </trkpt>
      <trkpt lat="50.27332" lon="5.02521">
        <ele>257.14577794456</ele>
        <time>2017-06-14T14:00:12Z</time>
      </trkpt>
      <trkpt lat="50.27312" lon="5.0251">
        <ele>259.40656362801</ele>
        <time>2017-06-14T14:00:16Z</time>
      </trkpt>
      <trkpt lat="50.27292" lon="5.02499">
        <ele>260.92526534806</ele>
        <time>2017-06-14T14:00:20Z</time>
      </trkpt>
      <trkpt lat="50.27267" lon="5.02487">
        <ele>262.32801095424</ele>
        <time>2017-06-14T14:00:25Z</time>
      </trkpt>
      <trkpt lat="50.27247" lon="5.0248">
        <ele>262.01181796285</ele>
        <time>2017-06-14T14:00:29Z</time>
      </trkpt>
      <trkpt lat="50.2723" lon="5.02475">
        <ele>261.91633464847</ele>
        <time>2017-06-14T14:00:33Z</time>
      </trkpt>
      <trkpt lat="50.27215" lon="5.02473">
        <ele>263.34797209399</ele>
        <time>2017-06-14T14:00:37Z</time>
      </trkpt>
      <trkpt lat="50.27201" lon="5.02467">
        <ele>263.63112053369</ele>
        <time>2017-06-14T14:00:42Z</time>
      </trkpt>
      <trkpt lat="50.27194" lon="5.02454">
        <ele>263.58062142685</ele>
        <time>2017-06-14T14:00:46Z</time>
      </trkpt>
      <trkpt lat="50.27186" lon="5.02439">
        <ele>263.77065513841</ele>
        <time>2017-06-14T14:00:50Z</time>
      </trkpt>
      <trkpt lat="50.27178" lon="5.02423">
        <ele>264.03317624027</ele>
        <time>2017-06-14T14:00:54Z</time>
      </trkpt>
      <trkpt lat="50.27169" lon="5.02406">
        <ele>264.57433937655</ele>
        <time>2017-06-14T14:00:58Z</time>
      </trkpt>
      <trkpt lat="50.27161" lon="5.02385">
        <ele>264.98079639608</ele>
        <time>2017-06-14T14:01:03Z</time>
      </trkpt>
      <trkpt lat="50.27153" lon="5.02369">
        <ele>265.2929656335</ele>
        <time>2017-06-14T14:01:07Z</time>
      </trkpt>
      <trkpt lat="50.27145" lon="5.02349">
        <ele>265.90404964332</ele>
        <time>2017-06-14T14:01:12Z</time>
      </trkpt>
      <trkpt lat="50.27139" lon="5.02335">
        <ele>266.22097111921</ele>
        <time>2017-06-14T14:01:16Z</time>
      </trkpt>
      <trkpt lat="50.27129" lon="5.0232">
        <ele>266.42667826498</ele>
        <time>2017-06-14T14:01:21Z</time>
      </trkpt>
      <trkpt lat="50.2712" lon="5.02307">
        <ele>266.2941210499</ele>
        <time>2017-06-14T14:01:25Z</time>
      </trkpt>
      <trkpt lat="50.27108" lon="5.02295">
        <ele>265.72863031917</ele>
        <time>2017-06-14T14:01:30Z</time>
      </trkpt>
      <trkpt lat="50.27092" lon="5.02276">
        <ele>264.37449525014</ele>
        <time>2017-06-14T14:01:35Z</time>
      </trkpt>
      <trkpt lat="50.27081" lon="5.02263">
        <ele>263.03498316658</ele>
        <time>2017-06-14T14:01:40Z</time>
      </trkpt>
      <trkpt lat="50.27072" lon="5.02252">
        <ele>263.75899499788</ele>
        <time>2017-06-14T14:01:45Z</time>
      </trkpt>
      <trkpt lat="50.27067" lon="5.02241">
        <ele>264.14292059694</ele>
        <time>2017-06-14T14:01:49Z</time>
      </trkpt>
      <trkpt lat="50.2706" lon="5.02225">
        <ele>264.05834409063</ele>
        <time>2017-06-14T14:01:53Z</time>
      </trkpt>
      <trkpt lat="50.27055" lon="5.02211">
        <ele>263.65553860066</ele>
        <time>2017-06-14T14:01:57Z</time>
      </trkpt>
      <trkpt lat="50.27051" lon="5.02194">
        <ele>263.33315892072</ele>
        <time>2017-06-14T14:02:01Z</time>
      </trkpt>
      <trkpt lat="50.2705" lon="5.02175">
        <ele>263.10355026063</ele>
        <time>2017-06-14T14:02:06Z</time>
      </trkpt>
      <trkpt lat="50.27046" lon="5.02158">
        <ele>262.76538732517</ele>
        <time>2017-06-14T14:02:10Z</time>
      </trkpt>
      <trkpt lat="50.27044" lon="5.02141">
        <ele>262.49234943059</ele>
        <time>2017-06-14T14:02:14Z</time>
      </trkpt>
      <trkpt lat="50.2704" lon="5.0212">
        <ele>261.28570607543</ele>
        <time>2017-06-14T14:02:19Z</time>
      </trkpt>
      <trkpt lat="50.27032" lon="5.02099">
        <ele>260.38422863418</ele>
        <time>2017-06-14T14:02:23Z</time>
      </trkpt>
      <trkpt lat="50.27019" lon="5.02083">
        <ele>259.32301520027</ele>
        <time>2017-06-14T14:02:28Z</time>
      </trkpt>
      <trkpt lat="50.27004" lon="5.02085">
        <ele>257.76013964083</ele>
        <time>2017-06-14T14:02:33Z</time>
      </trkpt>
      <trkpt lat="50.26987" lon="5.02086">
        <ele>245.74060868166</ele>
        <time>2017-06-14T14:02:37Z</time>
      </trkpt>
      <trkpt lat="50.26962" lon="5.02088">
        <ele>238.55254451325</ele>
        <time>2017-06-14T14:02:42Z</time>
      </trkpt>
      <trkpt lat="50.26944" lon="5.02093">
        <ele>236.79243912507</ele>
        <time>2017-06-14T14:02:46Z</time>
      </trkpt>
      <trkpt lat="50.26925" lon="5.02099">
        <ele>236.5493529326</ele>
        <time>2017-06-14T14:02:50Z</time>
      </trkpt>
      <trkpt lat="50.26908" lon="5.02114">
        <ele>237.25634265452</ele>
        <time>2017-06-14T14:02:54Z</time>
      </trkpt>
      <trkpt lat="50.26893" lon="5.02133">
        <ele>240.09969220222</ele>
        <time>2017-06-14T14:02:59Z</time>
      </trkpt>
      <trkpt lat="50.26882" lon="5.02156">
        <ele>241.55346755194</ele>
        <time>2017-06-14T14:03:03Z</time>
      </trkpt>
      <trkpt lat="50.2687" lon="5.02184">
        <ele>244.4773351246</ele>
        <time>2017-06-14T14:03:08Z</time>
      </trkpt>
      <trkpt lat="50.2686" lon="5.02202">
        <ele>249.04754426221</ele>
        <time>2017-06-14T14:03:12Z</time>
      </trkpt>
      <trkpt lat="50.26847" lon="5.02221">
        <ele>250.83176368688</ele>
        <time>2017-06-14T14:03:16Z</time>
      </trkpt>
      <trkpt lat="50.26827" lon="5.02242">
        <ele>250.89116497475</ele>
        <time>2017-06-14T14:03:21Z</time>
      </trkpt>
      <trkpt lat="50.26818" lon="5.02249">
        <ele>249.71196736828</ele>
        <time>2017-06-14T14:03:24Z</time>
      </trkpt>
      <trkpt lat="50.26791" lon="5.02257">
        <ele>249.55513179753</ele>
        <time>2017-06-14T14:03:29Z</time>
      </trkpt>
      <trkpt lat="50.26762" lon="5.02242">
        <ele>249.28832466636</ele>
        <time>2017-06-14T14:03:34Z</time>
      </trkpt>
      <trkpt lat="50.26739" lon="5.022">
        <ele>248.55778641225</ele>
        <time>2017-06-14T14:03:39Z</time>
      </trkpt>
      <trkpt lat="50.26725" lon="5.0216">
        <ele>247.44583628513</ele>
        <time>2017-06-14T14:03:44Z</time>
      </trkpt>
      <trkpt lat="50.26719" lon="5.02147">
        <ele>248.26210158047</ele>
        <time>2017-06-14T14:03:46Z</time>
      </trkpt>
      <trkpt lat="50.2669" lon="5.02127">
        <ele>250.57499049682</ele>
        <time>2017-06-14T14:03:55Z</time>
      </trkpt>
      <trkpt lat="50.26681" lon="5.0216">
        <ele>252.45002214499</ele>
        <time>2017-06-14T14:03:59Z</time>
      </trkpt>
      <trkpt lat="50.26675" lon="5.02206">
        <ele>254.45483089141</ele>
        <time>2017-06-14T14:04:04Z</time>
      </trkpt>
      <trkpt lat="50.26669" lon="5.02244">
        <ele>255.66222091624</ele>
        <time>2017-06-14T14:04:08Z</time>
      </trkpt>
      <trkpt lat="50.26662" lon="5.02289">
        <ele>256.38698567855</ele>
        <time>2017-06-14T14:04:13Z</time>
      </trkpt>
      <trkpt lat="50.26657" lon="5.02323">
        <ele>257.50376636566</ele>
        <time>2017-06-14T14:04:17Z</time>
      </trkpt>
      <trkpt lat="50.2665" lon="5.02357">
        <ele>255.11864915887</ele>
        <time>2017-06-14T14:04:21Z</time>
      </trkpt>
      <trkpt lat="50.26638" lon="5.02394">
        <ele>254.50709799553</ele>
        <time>2017-06-14T14:04:26Z</time>
      </trkpt>
      <trkpt lat="50.26625" lon="5.02424">
        <ele>256.66610855619</ele>
        <time>2017-06-14T14:04:30Z</time>
      </trkpt>
      <trkpt lat="50.26608" lon="5.02458">
        <ele>259.06601198282</ele>
        <time>2017-06-14T14:04:35Z</time>
      </trkpt>
      <trkpt lat="50.26594" lon="5.02484">
        <ele>260.27264781836</ele>
        <time>2017-06-14T14:04:39Z</time>
      </trkpt>
      <trkpt lat="50.26576" lon="5.02519">
        <ele>259.48269740479</ele>
        <time>2017-06-14T14:04:44Z</time>
      </trkpt>
      <trkpt lat="50.26558" lon="5.02544">
        <ele>259.79230371786</ele>
        <time>2017-06-14T14:04:49Z</time>
      </trkpt>
      <trkpt lat="50.26541" lon="5.02565">
        <ele>259.70126896993</ele>
        <time>2017-06-14T14:04:53Z</time>
      </trkpt>
      <trkpt lat="50.2652" lon="5.02585">
        <ele>261.88693520291</ele>
        <time>2017-06-14T14:04:58Z</time>
      </trkpt>
      <trkpt lat="50.26497" lon="5.02606">
        <ele>264.49671521455</ele>
        <time>2017-06-14T14:05:03Z</time>
      </trkpt>
      <trkpt lat="50.2648" lon="5.02618">
        <ele>266.12731076589</ele>
        <time>2017-06-14T14:05:07Z</time>
      </trkpt>
      <trkpt lat="50.26456" lon="5.02628">
        <ele>267.411786798</ele>
        <time>2017-06-14T14:05:12Z</time>
      </trkpt>
      <trkpt lat="50.2643" lon="5.02617">
        <ele>269.77536134405</ele>
        <time>2017-06-14T14:05:17Z</time>
      </trkpt>
      <trkpt lat="50.26415" lon="5.02592">
        <ele>271.32936996093</ele>
        <time>2017-06-14T14:05:21Z</time>
      </trkpt>
      <trkpt lat="50.26406" lon="5.02567">
        <ele>273.25920023533</ele>
        <time>2017-06-14T14:05:25Z</time>
      </trkpt>
      <trkpt lat="50.26397" lon="5.02548">
        <ele>275.07163180313</ele>
        <time>2017-06-14T14:05:29Z</time>
      </trkpt>
      <trkpt lat="50.26381" lon="5.02531">
        <ele>277.17342393537</ele>
        <time>2017-06-14T14:05:34Z</time>
      </trkpt>
      <trkpt lat="50.26366" lon="5.02528">
        <ele>276.84022823851</ele>
        <time>2017-06-14T14:05:38Z</time>
      </trkpt>
      <trkpt lat="50.26361" lon="5.02544">
        <ele>276.75789622661</ele>
        <time>2017-06-14T14:05:42Z</time>
      </trkpt>
      <trkpt lat="50.26356" lon="5.02588">
        <ele>277.73079959744</ele>
        <time>2017-06-14T14:05:47Z</time>
      </trkpt>
      <trkpt lat="50.26353" lon="5.02623">
        <ele>277.52693201145</ele>
        <time>2017-06-14T14:05:51Z</time>
      </trkpt>
      <trkpt lat="50.26349" lon="5.02657">
        <ele>277.89637850475</ele>
        <time>2017-06-14T14:05:55Z</time>
      </trkpt>
      <trkpt lat="50.26344" lon="5.02689">
        <ele>278.96534204461</ele>
        <time>2017-06-14T14:05:59Z</time>
      </trkpt>
      <trkpt lat="50.26334" lon="5.02734">
        <ele>279.88624200144</ele>
        <time>2017-06-14T14:06:04Z</time>
      </trkpt>
      <trkpt lat="50.26325" lon="5.02767">
        <ele>280.99959586059</ele>
        <time>2017-06-14T14:06:08Z</time>
      </trkpt>
      <trkpt lat="50.26316" lon="5.02802">
        <ele>280.69362638386</ele>
        <time>2017-06-14T14:06:12Z</time>
      </trkpt>
      <trkpt lat="50.26303" lon="5.02844">
        <ele>281.4730787971</ele>
        <time>2017-06-14T14:06:17Z</time>
      </trkpt>
      <trkpt lat="50.26286" lon="5.02882">
        <ele>282.81903713578</ele>
        <time>2017-06-14T14:06:22Z</time>
      </trkpt>
      <trkpt lat="50.26268" lon="5.02925">
        <ele>284.06374950805</ele>
        <time>2017-06-14T14:06:27Z</time>
      </trkpt>
      <trkpt lat="50.26246" lon="5.02962">
        <ele>284.72835736571</ele>
        <time>2017-06-14T14:06:32Z</time>
      </trkpt>
      <trkpt lat="50.26225" lon="5.02989">
        <ele>286.25296026624</ele>
        <time>2017-06-14T14:06:36Z</time>
      </trkpt>
      <trkpt lat="50.26204" lon="5.03016">
        <ele>287.50278149075</ele>
        <time>2017-06-14T14:06:40Z</time>
      </trkpt>
      <trkpt lat="50.26182" lon="5.03045">
        <ele>287.78919178061</ele>
        <time>2017-06-14T14:06:44Z</time>
      </trkpt>
      <trkpt lat="50.26159" lon="5.03073">
        <ele>286.53451034496</ele>
        <time>2017-06-14T14:06:48Z</time>
      </trkpt>
      <trkpt lat="50.26131" lon="5.03098">
        <ele>284.51428536456</ele>
        <time>2017-06-14T14:06:52Z</time>
      </trkpt>
      <trkpt lat="50.26099" lon="5.0312">
        <ele>282.34013572026</ele>
        <time>2017-06-14T14:06:56Z</time>
      </trkpt>
      <trkpt lat="50.26062" lon="5.0314">
        <ele>279.70123708813</ele>
        <time>2017-06-14T14:07:00Z</time>
      </trkpt>
      <trkpt lat="50.26012" lon="5.03157">
        <ele>276.52601200924</ele>
        <time>2017-06-14T14:07:05Z</time>
      </trkpt>
      <trkpt lat="50.25956" lon="5.03159">
        <ele>273.61792622989</ele>
        <time>2017-06-14T14:07:10Z</time>
      </trkpt>
      <trkpt lat="50.25913" lon="5.0315">
        <ele>268.53248256801</ele>
        <time>2017-06-14T14:07:14Z</time>
      </trkpt>
      <trkpt lat="50.25858" lon="5.03143">
        <ele>264.41722482513</ele>
        <time>2017-06-14T14:07:19Z</time>
      </trkpt>
      <trkpt lat="50.25818" lon="5.03137">
        <ele>262.26813812673</ele>
        <time>2017-06-14T14:07:23Z</time>
      </trkpt>
      <trkpt lat="50.25788" lon="5.03132">
        <ele>261.65189807223</ele>
        <time>2017-06-14T14:07:27Z</time>
      </trkpt>
      <trkpt lat="50.25758" lon="5.03127">
        <ele>262.03618119383</ele>
        <time>2017-06-14T14:07:32Z</time>
      </trkpt>
      <trkpt lat="50.25736" lon="5.03124">
        <ele>263.52728525596</ele>
        <time>2017-06-14T14:07:36Z</time>
      </trkpt>
      <trkpt lat="50.25714" lon="5.03121">
        <ele>266.03332976043</ele>
        <time>2017-06-14T14:07:40Z</time>
      </trkpt>
      <trkpt lat="50.25694" lon="5.03117">
        <ele>268.4284827486</ele>
        <time>2017-06-14T14:07:44Z</time>
      </trkpt>
      <trkpt lat="50.25668" lon="5.03113">
        <ele>271.11686432461</ele>
        <time>2017-06-14T14:07:49Z</time>
      </trkpt>
      <trkpt lat="50.25643" lon="5.03109">
        <ele>273.27375979591</ele>
        <time>2017-06-14T14:07:54Z</time>
      </trkpt>
      <trkpt lat="50.25625" lon="5.03105">
        <ele>275.23771553574</ele>
        <time>2017-06-14T14:07:58Z</time>
      </trkpt>
      <trkpt lat="50.25609" lon="5.03101">
        <ele>278.33278016051</ele>
        <time>2017-06-14T14:08:02Z</time>
      </trkpt>
      <trkpt lat="50.25587" lon="5.03096">
        <ele>279.62077828841</ele>
        <time>2017-06-14T14:08:07Z</time>
      </trkpt>
      <trkpt lat="50.25566" lon="5.03091">
        <ele>278.87390424631</ele>
        <time>2017-06-14T14:08:12Z</time>
      </trkpt>
      <trkpt lat="50.25542" lon="5.03088">
        <ele>279.77596774418</ele>
        <time>2017-06-14T14:08:16Z</time>
      </trkpt>
      <trkpt lat="50.25524" lon="5.03087">
        <ele>280.45607436355</ele>
        <time>2017-06-14T14:08:21Z</time>
      </trkpt>
      <trkpt lat="50.25516" lon="5.03087">
        <ele>285.54753765122</ele>
        <time>2017-06-14T14:10:37Z</time>
      </trkpt>
      <trkpt lat="50.25502" lon="5.03085">
        <ele>289.47942384575</ele>
        <time>2017-06-14T14:10:41Z</time>
      </trkpt>
      <trkpt lat="50.25481" lon="5.03081">
        <ele>292.56258934863</ele>
        <time>2017-06-14T14:10:45Z</time>
      </trkpt>
      <trkpt lat="50.25455" lon="5.03076">
        <ele>292.15669965413</ele>
        <time>2017-06-14T14:10:50Z</time>
      </trkpt>
      <trkpt lat="50.25429" lon="5.03069">
        <ele>293.39612247346</ele>
        <time>2017-06-14T14:10:55Z</time>
      </trkpt>
      <trkpt lat="50.25403" lon="5.03066">
        <ele>292.72499273741</ele>
        <time>2017-06-14T14:11:00Z</time>
      </trkpt>
      <trkpt lat="50.25381" lon="5.03064">
        <ele>292.93888543114</ele>
        <time>2017-06-14T14:11:04Z</time>
      </trkpt>
      <trkpt lat="50.25353" lon="5.03059">
        <ele>294.42929534123</ele>
        <time>2017-06-14T14:11:09Z</time>
      </trkpt>
      <trkpt lat="50.25329" lon="5.03055">
        <ele>296.07582410926</ele>
        <time>2017-06-14T14:11:13Z</time>
      </trkpt>
      <trkpt lat="50.25307" lon="5.03052">
        <ele>297.52170459042</ele>
        <time>2017-06-14T14:11:17Z</time>
      </trkpt>
      <trkpt lat="50.25286" lon="5.0305">
        <ele>299.97274899663</ele>
        <time>2017-06-14T14:11:21Z</time>
      </trkpt>
      <trkpt lat="50.25258" lon="5.03045">
        <ele>304.26225026922</ele>
        <time>2017-06-14T14:11:26Z</time>
      </trkpt>
      <trkpt lat="50.25228" lon="5.0304">
        <ele>307.35352698556</ele>
        <time>2017-06-14T14:11:31Z</time>
      </trkpt>
      <trkpt lat="50.25203" lon="5.03037">
        <ele>309.56810076578</ele>
        <time>2017-06-14T14:11:35Z</time>
      </trkpt>
      <trkpt lat="50.2518" lon="5.03034">
        <ele>312.19694883937</ele>
        <time>2017-06-14T14:11:39Z</time>
      </trkpt>
      <trkpt lat="50.25151" lon="5.03028">
        <ele>314.63116027333</ele>
        <time>2017-06-14T14:11:44Z</time>
      </trkpt>
      <trkpt lat="50.25119" lon="5.03021">
        <ele>315.37177355514</ele>
        <time>2017-06-14T14:11:49Z</time>
      </trkpt>
      <trkpt lat="50.25094" lon="5.03018">
        <ele>317.55162636249</ele>
        <time>2017-06-14T14:11:53Z</time>
      </trkpt>
      <trkpt lat="50.25073" lon="5.03017">
        <ele>319.62585253595</ele>
        <time>2017-06-14T14:11:57Z</time>
      </trkpt>
      <trkpt lat="50.25046" lon="5.03016">
        <ele>320.99258411179</ele>
        <time>2017-06-14T14:12:02Z</time>
      </trkpt>
      <trkpt lat="50.25013" lon="5.03015">
        <ele>322.31571434157</ele>
        <time>2017-06-14T14:12:07Z</time>
      </trkpt>
      <trkpt lat="50.24989" lon="5.03009">
        <ele>319.35317157414</ele>
        <time>2017-06-14T14:12:11Z</time>
      </trkpt>
      <trkpt lat="50.24958" lon="5.03002">
        <ele>314.08089036705</ele>
        <time>2017-06-14T14:12:16Z</time>
      </trkpt>
      <trkpt lat="50.24924" lon="5.02994">
        <ele>311.82784167673</ele>
        <time>2017-06-14T14:12:21Z</time>
      </trkpt>
      <trkpt lat="50.24893" lon="5.02988">
        <ele>312.75676322785</ele>
        <time>2017-06-14T14:12:26Z</time>
      </trkpt>
      <trkpt lat="50.24869" lon="5.0298">
        <ele>316.67901040166</ele>
        <time>2017-06-14T14:12:30Z</time>
      </trkpt>
      <trkpt lat="50.24842" lon="5.02977">
        <ele>316.90296754696</ele>
        <time>2017-06-14T14:12:34Z</time>
      </trkpt>
      <trkpt lat="50.24804" lon="5.02979">
        <ele>318.26884291602</ele>
        <time>2017-06-14T14:12:39Z</time>
      </trkpt>
      <trkpt lat="50.24765" lon="5.02972">
        <ele>313.32567910932</ele>
        <time>2017-06-14T14:12:43Z</time>
      </trkpt>
      <trkpt lat="50.24718" lon="5.02958">
        <ele>304.2296805061</ele>
        <time>2017-06-14T14:12:48Z</time>
      </trkpt>
      <trkpt lat="50.24677" lon="5.02921">
        <ele>301.13125511734</ele>
        <time>2017-06-14T14:12:53Z</time>
      </trkpt>
      <trkpt lat="50.24656" lon="5.02873">
        <ele>301.6882367249</ele>
        <time>2017-06-14T14:12:57Z</time>
      </trkpt>
      <trkpt lat="50.24646" lon="5.02836">
        <ele>302.67228631596</ele>
        <time>2017-06-14T14:13:01Z</time>
      </trkpt>
      <trkpt lat="50.24638" lon="5.0281">
        <ele>303.22894629381</ele>
        <time>2017-06-14T14:13:06Z</time>
      </trkpt>
      <trkpt lat="50.24622" lon="5.02824">
        <ele>298.3550778029</ele>
        <time>2017-06-14T14:13:11Z</time>
      </trkpt>
      <trkpt lat="50.24604" lon="5.02871">
        <ele>287.45302497001</ele>
        <time>2017-06-14T14:13:16Z</time>
      </trkpt>
      <trkpt lat="50.24591" lon="5.02916">
        <ele>283.20376301636</ele>
        <time>2017-06-14T14:13:20Z</time>
      </trkpt>
      <trkpt lat="50.24574" lon="5.02982">
        <ele>274.51362005101</ele>
        <time>2017-06-14T14:13:25Z</time>
      </trkpt>
      <trkpt lat="50.2456" lon="5.0304">
        <ele>270.8624248275</ele>
        <time>2017-06-14T14:13:29Z</time>
      </trkpt>
      <trkpt lat="50.24545" lon="5.031">
        <ele>268.38641118358</ele>
        <time>2017-06-14T14:13:33Z</time>
      </trkpt>
      <trkpt lat="50.24526" lon="5.03177">
        <ele>263.70843415619</ele>
        <time>2017-06-14T14:13:38Z</time>
      </trkpt>
      <trkpt lat="50.24511" lon="5.03241">
        <ele>260.26563089428</ele>
        <time>2017-06-14T14:13:42Z</time>
      </trkpt>
      <trkpt lat="50.24493" lon="5.03318">
        <ele>256.4269763583</ele>
        <time>2017-06-14T14:13:47Z</time>
      </trkpt>
      <trkpt lat="50.2448" lon="5.03373">
        <ele>253.59715172122</ele>
        <time>2017-06-14T14:13:51Z</time>
      </trkpt>
      <trkpt lat="50.24464" lon="5.03441">
        <ele>249.95879692805</ele>
        <time>2017-06-14T14:13:56Z</time>
      </trkpt>
      <trkpt lat="50.2445" lon="5.03491">
        <ele>247.40818066815</ele>
        <time>2017-06-14T14:14:01Z</time>
      </trkpt>
      <trkpt lat="50.24442" lon="5.03523">
        <ele>250.66268794991</ele>
        <time>2017-06-14T14:14:05Z</time>
      </trkpt>
      <trkpt lat="50.24431" lon="5.03565">
        <ele>251.81716134232</ele>
        <time>2017-06-14T14:14:10Z</time>
      </trkpt>
      <trkpt lat="50.24421" lon="5.036">
        <ele>252.83550833213</ele>
        <time>2017-06-14T14:14:14Z</time>
      </trkpt>
      <trkpt lat="50.24409" lon="5.03634">
        <ele>253.15649706791</ele>
        <time>2017-06-14T14:14:18Z</time>
      </trkpt>
      <trkpt lat="50.24393" lon="5.03667">
        <ele>251.84359157885</ele>
        <time>2017-06-14T14:14:22Z</time>
      </trkpt>
      <trkpt lat="50.24378" lon="5.03698">
        <ele>251.86304569573</ele>
        <time>2017-06-14T14:14:26Z</time>
      </trkpt>
      <trkpt lat="50.24361" lon="5.03732">
        <ele>252.244064062</ele>
        <time>2017-06-14T14:14:31Z</time>
      </trkpt>
      <trkpt lat="50.24346" lon="5.03761">
        <ele>255.61219436708</ele>
        <time>2017-06-14T14:14:36Z</time>
      </trkpt>
      <trkpt lat="50.24334" lon="5.03786">
        <ele>257.58719808869</ele>
        <time>2017-06-14T14:14:41Z</time>
      </trkpt>
      <trkpt lat="50.24325" lon="5.03806">
        <ele>258.96930273424</ele>
        <time>2017-06-14T14:14:45Z</time>
      </trkpt>
      <trkpt lat="50.24311" lon="5.03837">
        <ele>264.77746987652</ele>
        <time>2017-06-14T14:14:50Z</time>
      </trkpt>
      <trkpt lat="50.24299" lon="5.03876">
        <ele>266.00018620394</ele>
        <time>2017-06-14T14:14:55Z</time>
      </trkpt>
      <trkpt lat="50.24295" lon="5.03907">
        <ele>264.66921973519</ele>
        <time>2017-06-14T14:14:59Z</time>
      </trkpt>
      <trkpt lat="50.24293" lon="5.03953">
        <ele>259.97651057945</ele>
        <time>2017-06-14T14:15:04Z</time>
      </trkpt>
      <trkpt lat="50.24293" lon="5.03994">
        <ele>256.81343450674</ele>
        <time>2017-06-14T14:15:08Z</time>
      </trkpt>
      <trkpt lat="50.2428" lon="5.04047">
        <ele>258.53982311724</ele>
        <time>2017-06-14T14:15:13Z</time>
      </trkpt>
      <trkpt lat="50.2426" lon="5.04107">
        <ele>258.88137608067</ele>
        <time>2017-06-14T14:15:18Z</time>
      </trkpt>
      <trkpt lat="50.2424" lon="5.04165">
        <ele>259.91173460542</ele>
        <time>2017-06-14T14:15:22Z</time>
      </trkpt>
      <trkpt lat="50.24222" lon="5.0422">
        <ele>262.02130844463</ele>
        <time>2017-06-14T14:15:26Z</time>
      </trkpt>
      <trkpt lat="50.24202" lon="5.04284">
        <ele>262.13352190554</ele>
        <time>2017-06-14T14:15:31Z</time>
      </trkpt>
      <trkpt lat="50.2419" lon="5.04323">
        <ele>259.65126335385</ele>
        <time>2017-06-14T14:15:35Z</time>
      </trkpt>
      <trkpt lat="50.24179" lon="5.04356">
        <ele>257.9042754857</ele>
        <time>2017-06-14T14:15:39Z</time>
      </trkpt>
      <trkpt lat="50.2417" lon="5.04388">
        <ele>259.42426174436</ele>
        <time>2017-06-14T14:15:43Z</time>
      </trkpt>
      <trkpt lat="50.2416" lon="5.0442">
        <ele>258.74138465509</ele>
        <time>2017-06-14T14:15:47Z</time>
      </trkpt>
      <trkpt lat="50.2415" lon="5.04451">
        <ele>257.67917056059</ele>
        <time>2017-06-14T14:15:51Z</time>
      </trkpt>
      <trkpt lat="50.2414" lon="5.04484">
        <ele>258.69069808731</ele>
        <time>2017-06-14T14:15:55Z</time>
      </trkpt>
      <trkpt lat="50.24126" lon="5.04524">
        <ele>258.65488949358</ele>
        <time>2017-06-14T14:16:00Z</time>
      </trkpt>
      <trkpt lat="50.24111" lon="5.04574">
        <ele>258.17640495298</ele>
        <time>2017-06-14T14:16:05Z</time>
      </trkpt>
      <trkpt lat="50.24096" lon="5.0462">
        <ele>258.82724280278</ele>
        <time>2017-06-14T14:16:09Z</time>
      </trkpt>
      <trkpt lat="50.24082" lon="5.04667">
        <ele>257.56208643741</ele>
        <time>2017-06-14T14:16:13Z</time>
      </trkpt>
      <trkpt lat="50.24064" lon="5.04721">
        <ele>251.93421191377</ele>
        <time>2017-06-14T14:16:18Z</time>
      </trkpt>
      <trkpt lat="50.24048" lon="5.0477">
        <ele>252.4780943501</ele>
        <time>2017-06-14T14:16:23Z</time>
      </trkpt>
      <trkpt lat="50.24033" lon="5.04812">
        <ele>251.10196696021</ele>
        <time>2017-06-14T14:16:27Z</time>
      </trkpt>
      <trkpt lat="50.24018" lon="5.04857">
        <ele>247.03462013236</ele>
        <time>2017-06-14T14:16:31Z</time>
      </trkpt>
      <trkpt lat="50.24006" lon="5.04905">
        <ele>243.1988859109</ele>
        <time>2017-06-14T14:16:35Z</time>
      </trkpt>
      <trkpt lat="50.24001" lon="5.04964">
        <ele>239.98517448495</ele>
        <time>2017-06-14T14:16:40Z</time>
      </trkpt>
      <trkpt lat="50.23996" lon="5.0501">
        <ele>240.85938951477</ele>
        <time>2017-06-14T14:16:44Z</time>
      </trkpt>
      <trkpt lat="50.24001" lon="5.05084">
        <ele>241.66846426003</ele>
        <time>2017-06-14T14:16:49Z</time>
      </trkpt>
      <trkpt lat="50.2401" lon="5.05151">
        <ele>232.84788334118</ele>
        <time>2017-06-14T14:16:53Z</time>
      </trkpt>
      <trkpt lat="50.24019" lon="5.05215">
        <ele>224.07881335758</ele>
        <time>2017-06-14T14:16:57Z</time>
      </trkpt>
      <trkpt lat="50.24027" lon="5.0527">
        <ele>213.46477381751</ele>
        <time>2017-06-14T14:17:01Z</time>
      </trkpt>
      <trkpt lat="50.24036" lon="5.05324">
        <ele>205.8332860407</ele>
        <time>2017-06-14T14:17:05Z</time>
      </trkpt>
      <trkpt lat="50.24048" lon="5.05385">
        <ele>203.80855745129</ele>
        <time>2017-06-14T14:17:10Z</time>
      </trkpt>
      <trkpt lat="50.24056" lon="5.05421">
        <ele>205.07474615476</ele>
        <time>2017-06-14T14:17:14Z</time>
      </trkpt>
      <trkpt lat="50.24059" lon="5.05466">
        <ele>203.86143115847</ele>
        <time>2017-06-14T14:17:19Z</time>
      </trkpt>
      <trkpt lat="50.24057" lon="5.05503">
        <ele>214.09063868678</ele>
        <time>2017-06-14T14:17:23Z</time>
      </trkpt>
      <trkpt lat="50.24046" lon="5.05534">
        <ele>225.25599718444</ele>
        <time>2017-06-14T14:17:28Z</time>
      </trkpt>
      <trkpt lat="50.24034" lon="5.05553">
        <ele>231.0735479678</ele>
        <time>2017-06-14T14:17:32Z</time>
      </trkpt>
      <trkpt lat="50.24018" lon="5.05576">
        <ele>233.79445139763</ele>
        <time>2017-06-14T14:17:37Z</time>
      </trkpt>
      <trkpt lat="50.24022" lon="5.05597">
        <ele>233.7093452378</ele>
        <time>2017-06-14T14:17:41Z</time>
      </trkpt>
      <trkpt lat="50.24025" lon="5.05627">
        <ele>233.15921335944</ele>
        <time>2017-06-14T14:17:46Z</time>
      </trkpt>
      <trkpt lat="50.24025" lon="5.05655">
        <ele>232.47508310823</ele>
        <time>2017-06-14T14:17:50Z</time>
      </trkpt>
      <trkpt lat="50.24028" lon="5.05681">
        <ele>230.80330048681</ele>
        <time>2017-06-14T14:17:54Z</time>
      </trkpt>
      <trkpt lat="50.24032" lon="5.05711">
        <ele>228.29706829069</ele>
        <time>2017-06-14T14:17:59Z</time>
      </trkpt>
      <trkpt lat="50.24029" lon="5.05739">
        <ele>227.59472796715</ele>
        <time>2017-06-14T14:18:03Z</time>
      </trkpt>
      <trkpt lat="50.24023" lon="5.05765">
        <ele>227.75465026061</ele>
        <time>2017-06-14T14:18:08Z</time>
      </trkpt>
      <trkpt lat="50.2402" lon="5.05782">
        <ele>229.21286349676</ele>
        <time>2017-06-14T14:18:12Z</time>
      </trkpt>
      <trkpt lat="50.24007" lon="5.05815">
        <ele>231.65899567491</ele>
        <time>2017-06-14T14:18:17Z</time>
      </trkpt>
      <trkpt lat="50.23995" lon="5.05841">
        <ele>231.45109328779</ele>
        <time>2017-06-14T14:18:22Z</time>
      </trkpt>
      <trkpt lat="50.23982" lon="5.05877">
        <ele>228.48580162341</ele>
        <time>2017-06-14T14:18:27Z</time>
      </trkpt>
      <trkpt lat="50.23969" lon="5.05905">
        <ele>227.75857129338</ele>
        <time>2017-06-14T14:18:31Z</time>
      </trkpt>
      <trkpt lat="50.23953" lon="5.05929">
        <ele>230.46336050376</ele>
        <time>2017-06-14T14:18:35Z</time>
      </trkpt>
      <trkpt lat="50.23929" lon="5.05957">
        <ele>238.93213421316</ele>
        <time>2017-06-14T14:18:40Z</time>
      </trkpt>
      <trkpt lat="50.23908" lon="5.05976">
        <ele>243.42783704664</ele>
        <time>2017-06-14T14:18:44Z</time>
      </trkpt>
      <trkpt lat="50.23894" lon="5.06001">
        <ele>245.03805482893</ele>
        <time>2017-06-14T14:18:49Z</time>
      </trkpt>
      <trkpt lat="50.23894" lon="5.06024">
        <ele>244.07312046694</ele>
        <time>2017-06-14T14:18:53Z</time>
      </trkpt>
      <trkpt lat="50.23899" lon="5.06053">
        <ele>241.52370201839</ele>
        <time>2017-06-14T14:18:57Z</time>
      </trkpt>
      <trkpt lat="50.23904" lon="5.06091">
        <ele>240.48451447548</ele>
        <time>2017-06-14T14:19:01Z</time>
      </trkpt>
      <trkpt lat="50.23905" lon="5.06133">
        <ele>240.00457499033</ele>
        <time>2017-06-14T14:19:05Z</time>
      </trkpt>
      <trkpt lat="50.23904" lon="5.0617">
        <ele>239.05341021727</ele>
        <time>2017-06-14T14:19:09Z</time>
      </trkpt>
      <trkpt lat="50.23899" lon="5.06207">
        <ele>239.84145257935</ele>
        <time>2017-06-14T14:19:14Z</time>
      </trkpt>
      <trkpt lat="50.23889" lon="5.06238">
        <ele>242.21009539436</ele>
        <time>2017-06-14T14:19:18Z</time>
      </trkpt>
      <trkpt lat="50.23876" lon="5.0627">
        <ele>246.79178040683</ele>
        <time>2017-06-14T14:19:22Z</time>
      </trkpt>
      <trkpt lat="50.23863" lon="5.06306">
        <ele>250.46790106639</ele>
        <time>2017-06-14T14:19:27Z</time>
      </trkpt>
      <trkpt lat="50.2386" lon="5.06332">
        <ele>250.3504554432</ele>
        <time>2017-06-14T14:19:32Z</time>
      </trkpt>
      <trkpt lat="50.23875" lon="5.06357">
        <ele>251.70174503151</ele>
        <time>2017-06-14T14:19:36Z</time>
      </trkpt>
      <trkpt lat="50.23889" lon="5.06384">
        <ele>252.27063981109</ele>
        <time>2017-06-14T14:19:40Z</time>
      </trkpt>
      <trkpt lat="50.23898" lon="5.06423">
        <ele>253.6579749394</ele>
        <time>2017-06-14T14:19:45Z</time>
      </trkpt>
      <trkpt lat="50.23901" lon="5.06462">
        <ele>255.29762406991</ele>
        <time>2017-06-14T14:19:49Z</time>
      </trkpt>
      <trkpt lat="50.23911" lon="5.06499">
        <ele>256.12559418397</ele>
        <time>2017-06-14T14:19:54Z</time>
      </trkpt>
      <trkpt lat="50.23921" lon="5.06514">
        <ele>255.52677632161</ele>
        <time>2017-06-14T14:19:58Z</time>
      </trkpt>
      <trkpt lat="50.23953" lon="5.06528">
        <ele>257.48469325071</ele>
        <time>2017-06-14T14:20:03Z</time>
      </trkpt>
      <trkpt lat="50.23977" lon="5.06538">
        <ele>253.15258374101</ele>
        <time>2017-06-14T14:20:07Z</time>
      </trkpt>
      <trkpt lat="50.24006" lon="5.06555">
        <ele>250.01038102493</ele>
        <time>2017-06-14T14:20:12Z</time>
      </trkpt>
      <trkpt lat="50.24028" lon="5.06558">
        <ele>245.78764313162</ele>
        <time>2017-06-14T14:20:16Z</time>
      </trkpt>
      <trkpt lat="50.24053" lon="5.06562">
        <ele>242.91578547018</ele>
        <time>2017-06-14T14:20:20Z</time>
      </trkpt>
      <trkpt lat="50.24082" lon="5.06574">
        <ele>241.08715365791</ele>
        <time>2017-06-14T14:20:24Z</time>
      </trkpt>
      <trkpt lat="50.24111" lon="5.06607">
        <ele>241.7246202778</ele>
        <time>2017-06-14T14:20:29Z</time>
      </trkpt>
      <trkpt lat="50.2413" lon="5.0664">
        <ele>243.63034142015</ele>
        <time>2017-06-14T14:20:33Z</time>
      </trkpt>
      <trkpt lat="50.24149" lon="5.06668">
        <ele>243.17208027089</ele>
        <time>2017-06-14T14:20:37Z</time>
      </trkpt>
      <trkpt lat="50.24171" lon="5.06687">
        <ele>240.89945579407</ele>
        <time>2017-06-14T14:20:41Z</time>
      </trkpt>
      <trkpt lat="50.24184" lon="5.06705">
        <ele>241.27393155302</ele>
        <time>2017-06-14T14:20:45Z</time>
      </trkpt>
      <trkpt lat="50.24169" lon="5.0671">
        <ele>244.59097966031</ele>
        <time>2017-06-14T14:20:50Z</time>
      </trkpt>
      <trkpt lat="50.24146" lon="5.067">
        <ele>255.2928208299</ele>
        <time>2017-06-14T14:20:55Z</time>
      </trkpt>
      <trkpt lat="50.24129" lon="5.06696">
        <ele>262.05048153274</ele>
        <time>2017-06-14T14:20:59Z</time>
      </trkpt>
      <trkpt lat="50.24111" lon="5.06692">
        <ele>268.38858797839</ele>
        <time>2017-06-14T14:21:03Z</time>
      </trkpt>
      <trkpt lat="50.24087" lon="5.06685">
        <ele>269.4850164809</ele>
        <time>2017-06-14T14:21:08Z</time>
      </trkpt>
      <trkpt lat="50.24071" lon="5.06692">
        <ele>266.97483660081</ele>
        <time>2017-06-14T14:21:12Z</time>
      </trkpt>
      <trkpt lat="50.24058" lon="5.06712">
        <ele>262.90167428951</ele>
        <time>2017-06-14T14:21:16Z</time>
      </trkpt>
      <trkpt lat="50.24054" lon="5.06742">
        <ele>261.09952367759</ele>
        <time>2017-06-14T14:21:20Z</time>
      </trkpt>
      <trkpt lat="50.24057" lon="5.06769">
        <ele>261.20529465735</ele>
        <time>2017-06-14T14:21:24Z</time>
      </trkpt>
      <trkpt lat="50.24067" lon="5.06795">
        <ele>255.43602572227</ele>
        <time>2017-06-14T14:21:28Z</time>
      </trkpt>
      <trkpt lat="50.24076" lon="5.06822">
        <ele>250.55590891651</ele>
        <time>2017-06-14T14:21:32Z</time>
      </trkpt>
      <trkpt lat="50.24086" lon="5.06852">
        <ele>255.95486694532</ele>
        <time>2017-06-14T14:21:36Z</time>
      </trkpt>
      <trkpt lat="50.24096" lon="5.06885">
        <ele>260.39678270693</ele>
        <time>2017-06-14T14:21:40Z</time>
      </trkpt>
      <trkpt lat="50.241" lon="5.06918">
        <ele>259.09256300063</ele>
        <time>2017-06-14T14:21:44Z</time>
      </trkpt>
      <trkpt lat="50.24096" lon="5.06951">
        <ele>253.64593632408</ele>
        <time>2017-06-14T14:21:48Z</time>
      </trkpt>
      <trkpt lat="50.24086" lon="5.06994">
        <ele>250.59269127729</ele>
        <time>2017-06-14T14:21:53Z</time>
      </trkpt>
      <trkpt lat="50.24073" lon="5.0702">
        <ele>253.20707480174</ele>
        <time>2017-06-14T14:21:57Z</time>
      </trkpt>
      <trkpt lat="50.24056" lon="5.0704">
        <ele>258.79635111561</ele>
        <time>2017-06-14T14:22:01Z</time>
      </trkpt>
      <trkpt lat="50.24032" lon="5.0705">
        <ele>266.42039210308</ele>
        <time>2017-06-14T14:22:06Z</time>
      </trkpt>
      <trkpt lat="50.24006" lon="5.07048">
        <ele>272.30743307258</ele>
        <time>2017-06-14T14:22:11Z</time>
      </trkpt>
      <trkpt lat="50.23988" lon="5.07047">
        <ele>266.70027788002</ele>
        <time>2017-06-14T14:22:15Z</time>
      </trkpt>
      <trkpt lat="50.23973" lon="5.07033">
        <ele>265.75104675497</ele>
        <time>2017-06-14T14:22:19Z</time>
      </trkpt>
      <trkpt lat="50.23957" lon="5.07006">
        <ele>265.59041471425</ele>
        <time>2017-06-14T14:22:23Z</time>
      </trkpt>
      <trkpt lat="50.23944" lon="5.06976">
        <ele>268.9011850636</ele>
        <time>2017-06-14T14:22:27Z</time>
      </trkpt>
      <trkpt lat="50.23932" lon="5.06952">
        <ele>273.12652320703</ele>
        <time>2017-06-14T14:22:31Z</time>
      </trkpt>
      <trkpt lat="50.2392" lon="5.06923">
        <ele>278.52325561149</ele>
        <time>2017-06-14T14:22:36Z</time>
      </trkpt>
      <trkpt lat="50.23897" lon="5.06892">
        <ele>286.48140168499</ele>
        <time>2017-06-14T14:22:41Z</time>
      </trkpt>
      <trkpt lat="50.2387" lon="5.06868">
        <ele>289.90101803679</ele>
        <time>2017-06-14T14:22:46Z</time>
      </trkpt>
      <trkpt lat="50.23849" lon="5.06854">
        <ele>288.47682475894</ele>
        <time>2017-06-14T14:22:50Z</time>
      </trkpt>
      <trkpt lat="50.23827" lon="5.06839">
        <ele>288.67196618762</ele>
        <time>2017-06-14T14:22:54Z</time>
      </trkpt>
      <trkpt lat="50.23805" lon="5.06824">
        <ele>291.08465618548</ele>
        <time>2017-06-14T14:22:58Z</time>
      </trkpt>
      <trkpt lat="50.23784" lon="5.06814">
        <ele>297.66408850509</ele>
        <time>2017-06-14T14:23:02Z</time>
      </trkpt>
      <trkpt lat="50.23761" lon="5.06818">
        <ele>297.17831413658</ele>
        <time>2017-06-14T14:23:06Z</time>
      </trkpt>
      <trkpt lat="50.2374" lon="5.06831">
        <ele>292.94259951189</ele>
        <time>2017-06-14T14:23:10Z</time>
      </trkpt>
      <trkpt lat="50.23723" lon="5.06848">
        <ele>294.7881258345</ele>
        <time>2017-06-14T14:23:14Z</time>
      </trkpt>
      <trkpt lat="50.23704" lon="5.06869">
        <ele>293.28200373065</ele>
        <time>2017-06-14T14:23:19Z</time>
      </trkpt>
      <trkpt lat="50.23686" lon="5.06891">
        <ele>291.85985787128</ele>
        <time>2017-06-14T14:23:24Z</time>
      </trkpt>
      <trkpt lat="50.2367" lon="5.06919">
        <ele>290.9196364762</ele>
        <time>2017-06-14T14:23:29Z</time>
      </trkpt>
      <trkpt lat="50.2367" lon="5.06942">
        <ele>287.73144078028</ele>
        <time>2017-06-14T14:23:33Z</time>
      </trkpt>
      <trkpt lat="50.23667" lon="5.06974">
        <ele>289.99555449252</ele>
        <time>2017-06-14T14:23:37Z</time>
      </trkpt>
      <trkpt lat="50.23665" lon="5.07006">
        <ele>294.13682413782</ele>
        <time>2017-06-14T14:23:41Z</time>
      </trkpt>
      <trkpt lat="50.23661" lon="5.0704">
        <ele>298.03782083694</ele>
        <time>2017-06-14T14:23:45Z</time>
      </trkpt>
      <trkpt lat="50.23659" lon="5.07071">
        <ele>298.25420340069</ele>
        <time>2017-06-14T14:23:49Z</time>
      </trkpt>
      <trkpt lat="50.23655" lon="5.07109">
        <ele>298.31348305277</ele>
        <time>2017-06-14T14:23:54Z</time>
      </trkpt>
      <trkpt lat="50.23651" lon="5.07156">
        <ele>296.50152062266</ele>
        <time>2017-06-14T14:23:59Z</time>
      </trkpt>
      <trkpt lat="50.23647" lon="5.07193">
        <ele>295.04399917898</ele>
        <time>2017-06-14T14:24:03Z</time>
      </trkpt>
      <trkpt lat="50.23643" lon="5.07232">
        <ele>292.11291018907</ele>
        <time>2017-06-14T14:24:07Z</time>
      </trkpt>
      <trkpt lat="50.23638" lon="5.0728">
        <ele>288.29764449379</ele>
        <time>2017-06-14T14:24:12Z</time>
      </trkpt>
      <trkpt lat="50.23632" lon="5.07322">
        <ele>288.68224161859</ele>
        <time>2017-06-14T14:24:16Z</time>
      </trkpt>
      <trkpt lat="50.23626" lon="5.07365">
        <ele>287.47061605332</ele>
        <time>2017-06-14T14:24:20Z</time>
      </trkpt>
      <trkpt lat="50.23621" lon="5.07407">
        <ele>284.41420144701</ele>
        <time>2017-06-14T14:24:24Z</time>
      </trkpt>
      <trkpt lat="50.23617" lon="5.07458">
        <ele>284.98377197545</ele>
        <time>2017-06-14T14:24:29Z</time>
      </trkpt>
      <trkpt lat="50.23613" lon="5.075">
        <ele>284.87941540337</ele>
        <time>2017-06-14T14:24:33Z</time>
      </trkpt>
      <trkpt lat="50.23608" lon="5.07543">
        <ele>285.04544088561</ele>
        <time>2017-06-14T14:24:38Z</time>
      </trkpt>
      <trkpt lat="50.23602" lon="5.0758">
        <ele>285.61245030065</ele>
        <time>2017-06-14T14:24:42Z</time>
      </trkpt>
      <trkpt lat="50.23597" lon="5.07633">
        <ele>286.46405309879</ele>
        <time>2017-06-14T14:24:47Z</time>
      </trkpt>
      <trkpt lat="50.23594" lon="5.07694">
        <ele>293.46011011038</ele>
        <time>2017-06-14T14:24:52Z</time>
      </trkpt>
      <trkpt lat="50.23588" lon="5.07739">
        <ele>294.99218051907</ele>
        <time>2017-06-14T14:24:56Z</time>
      </trkpt>
      <trkpt lat="50.2358" lon="5.07782">
        <ele>295.11494048507</ele>
        <time>2017-06-14T14:25:00Z</time>
      </trkpt>
      <trkpt lat="50.23573" lon="5.07819">
        <ele>294.93861345688</ele>
        <time>2017-06-14T14:25:04Z</time>
      </trkpt>
      <trkpt lat="50.23562" lon="5.07864">
        <ele>292.19828649446</ele>
        <time>2017-06-14T14:25:09Z</time>
      </trkpt>
      <trkpt lat="50.23553" lon="5.079">
        <ele>285.91658082408</ele>
        <time>2017-06-14T14:25:13Z</time>
      </trkpt>
      <trkpt lat="50.23543" lon="5.07945">
        <ele>284.66071624828</ele>
        <time>2017-06-14T14:25:18Z</time>
      </trkpt>
      <trkpt lat="50.23535" lon="5.07981">
        <ele>286.34456916715</ele>
        <time>2017-06-14T14:25:23Z</time>
      </trkpt>
      <trkpt lat="50.2354" lon="5.0799">
        <ele>286.47533820359</ele>
        <time>2017-06-14T14:25:29Z</time>
      </trkpt>
      <trkpt lat="50.23532" lon="5.07997">
        <ele>287.91420755967</ele>
        <time>2017-06-14T14:26:48Z</time>
      </trkpt>
      <trkpt lat="50.23532" lon="5.08012">
        <ele>287.61200193354</ele>
        <time>2017-06-14T14:26:52Z</time>
      </trkpt>
      <trkpt lat="50.23531" lon="5.08033">
        <ele>287.93613253849</ele>
        <time>2017-06-14T14:26:56Z</time>
      </trkpt>
      <trkpt lat="50.23531" lon="5.08056">
        <ele>290.34551294766</ele>
        <time>2017-06-14T14:27:00Z</time>
      </trkpt>
      <trkpt lat="50.23532" lon="5.08084">
        <ele>291.47999880732</ele>
        <time>2017-06-14T14:27:04Z</time>
      </trkpt>
      <trkpt lat="50.23532" lon="5.08114">
        <ele>291.79897472867</ele>
        <time>2017-06-14T14:27:08Z</time>
      </trkpt>
      <trkpt lat="50.23535" lon="5.0814">
        <ele>290.12128204772</ele>
        <time>2017-06-14T14:27:12Z</time>
      </trkpt>
      <trkpt lat="50.23539" lon="5.08174">
        <ele>290.52412835732</ele>
        <time>2017-06-14T14:27:17Z</time>
      </trkpt>
      <trkpt lat="50.23543" lon="5.08209">
        <ele>290.72911619143</ele>
        <time>2017-06-14T14:27:22Z</time>
      </trkpt>
      <trkpt lat="50.23548" lon="5.08237">
        <ele>291.65212333509</ele>
        <time>2017-06-14T14:27:26Z</time>
      </trkpt>
      <trkpt lat="50.23555" lon="5.08277">
        <ele>294.28852551795</ele>
        <time>2017-06-14T14:27:31Z</time>
      </trkpt>
      <trkpt lat="50.23561" lon="5.0831">
        <ele>292.71531317749</ele>
        <time>2017-06-14T14:27:35Z</time>
      </trkpt>
      <trkpt lat="50.23569" lon="5.08346">
        <ele>291.0427657918</ele>
        <time>2017-06-14T14:27:40Z</time>
      </trkpt>
      <trkpt lat="50.23577" lon="5.08377">
        <ele>291.32609174253</ele>
        <time>2017-06-14T14:27:44Z</time>
      </trkpt>
      <trkpt lat="50.23583" lon="5.08408">
        <ele>291.4476168612</ele>
        <time>2017-06-14T14:27:48Z</time>
      </trkpt>
      <trkpt lat="50.23591" lon="5.08438">
        <ele>291.18271308351</ele>
        <time>2017-06-14T14:27:52Z</time>
      </trkpt>
      <trkpt lat="50.236" lon="5.08475">
        <ele>291.3410328585</ele>
        <time>2017-06-14T14:27:57Z</time>
      </trkpt>
      <trkpt lat="50.23609" lon="5.08502">
        <ele>294.07031355668</ele>
        <time>2017-06-14T14:28:01Z</time>
      </trkpt>
      <trkpt lat="50.23621" lon="5.08533">
        <ele>294.95334073282</ele>
        <time>2017-06-14T14:28:06Z</time>
      </trkpt>
      <trkpt lat="50.23631" lon="5.0856">
        <ele>297.30888370907</ele>
        <time>2017-06-14T14:28:10Z</time>
      </trkpt>
      <trkpt lat="50.23645" lon="5.08593">
        <ele>297.07080918758</ele>
        <time>2017-06-14T14:28:15Z</time>
      </trkpt>
      <trkpt lat="50.23659" lon="5.08628">
        <ele>301.24425204455</ele>
        <time>2017-06-14T14:28:20Z</time>
      </trkpt>
      <trkpt lat="50.2367" lon="5.08658">
        <ele>305.7364512786</ele>
        <time>2017-06-14T14:28:24Z</time>
      </trkpt>
      <trkpt lat="50.23681" lon="5.0869">
        <ele>307.37670222916</ele>
        <time>2017-06-14T14:28:28Z</time>
      </trkpt>
      <trkpt lat="50.23691" lon="5.08721">
        <ele>308.50703749262</ele>
        <time>2017-06-14T14:28:32Z</time>
      </trkpt>
      <trkpt lat="50.23704" lon="5.0876">
        <ele>306.47838875868</ele>
        <time>2017-06-14T14:28:37Z</time>
      </trkpt>
      <trkpt lat="50.23716" lon="5.08789">
        <ele>304.5576225578</ele>
        <time>2017-06-14T14:28:41Z</time>
      </trkpt>
      <trkpt lat="50.23727" lon="5.08817">
        <ele>304.99908831691</ele>
        <time>2017-06-14T14:28:45Z</time>
      </trkpt>
      <trkpt lat="50.23738" lon="5.08847">
        <ele>305.93412557074</ele>
        <time>2017-06-14T14:28:49Z</time>
      </trkpt>
      <trkpt lat="50.23748" lon="5.08888">
        <ele>309.58046599023</ele>
        <time>2017-06-14T14:28:54Z</time>
      </trkpt>
      <trkpt lat="50.23754" lon="5.08917">
        <ele>309.29980253475</ele>
        <time>2017-06-14T14:28:58Z</time>
      </trkpt>
      <trkpt lat="50.23759" lon="5.08942">
        <ele>308.75714740212</ele>
        <time>2017-06-14T14:29:02Z</time>
      </trkpt>
      <trkpt lat="50.23761" lon="5.08973">
        <ele>310.53341354344</ele>
        <time>2017-06-14T14:29:06Z</time>
      </trkpt>
      <trkpt lat="50.2376" lon="5.09002">
        <ele>310.58471128233</ele>
        <time>2017-06-14T14:29:10Z</time>
      </trkpt>
      <trkpt lat="50.23759" lon="5.09038">
        <ele>308.02868794478</ele>
        <time>2017-06-14T14:29:15Z</time>
      </trkpt>
      <trkpt lat="50.23766" lon="5.09075">
        <ele>304.52247822822</ele>
        <time>2017-06-14T14:29:20Z</time>
      </trkpt>
      <trkpt lat="50.23772" lon="5.09099">
        <ele>302.68175900498</ele>
        <time>2017-06-14T14:29:24Z</time>
      </trkpt>
      <trkpt lat="50.23781" lon="5.09135">
        <ele>302.88691772973</ele>
        <time>2017-06-14T14:29:29Z</time>
      </trkpt>
      <trkpt lat="50.23788" lon="5.09169">
        <ele>307.35189170511</ele>
        <time>2017-06-14T14:29:34Z</time>
      </trkpt>
      <trkpt lat="50.23792" lon="5.09202">
        <ele>309.66813196981</ele>
        <time>2017-06-14T14:29:38Z</time>
      </trkpt>
      <trkpt lat="50.23796" lon="5.09245">
        <ele>309.92551923543</ele>
        <time>2017-06-14T14:29:43Z</time>
      </trkpt>
      <trkpt lat="50.23799" lon="5.0929">
        <ele>308.84014599103</ele>
        <time>2017-06-14T14:29:48Z</time>
      </trkpt>
      <trkpt lat="50.23803" lon="5.09323">
        <ele>303.40627934848</ele>
        <time>2017-06-14T14:29:52Z</time>
      </trkpt>
      <trkpt lat="50.23807" lon="5.09359">
        <ele>300.65179330911</ele>
        <time>2017-06-14T14:29:57Z</time>
      </trkpt>
      <trkpt lat="50.2381" lon="5.09389">
        <ele>297.8867752412</ele>
        <time>2017-06-14T14:30:01Z</time>
      </trkpt>
      <trkpt lat="50.23813" lon="5.0942">
        <ele>298.59088266603</ele>
        <time>2017-06-14T14:30:06Z</time>
      </trkpt>
      <trkpt lat="50.23816" lon="5.09453">
        <ele>299.42502750122</ele>
        <time>2017-06-14T14:30:10Z</time>
      </trkpt>
      <trkpt lat="50.23819" lon="5.09487">
        <ele>303.01003905697</ele>
        <time>2017-06-14T14:30:14Z</time>
      </trkpt>
      <trkpt lat="50.23822" lon="5.09525">
        <ele>307.27147690777</ele>
        <time>2017-06-14T14:30:18Z</time>
      </trkpt>
      <trkpt lat="50.23828" lon="5.09564">
        <ele>311.11912841123</ele>
        <time>2017-06-14T14:30:22Z</time>
      </trkpt>
      <trkpt lat="50.23835" lon="5.09611">
        <ele>315.47056017358</ele>
        <time>2017-06-14T14:30:26Z</time>
      </trkpt>
      <trkpt lat="50.2384" lon="5.09647">
        <ele>318.62812677336</ele>
        <time>2017-06-14T14:30:30Z</time>
      </trkpt>
      <trkpt lat="50.23848" lon="5.09698">
        <ele>316.12444895163</ele>
        <time>2017-06-14T14:30:35Z</time>
      </trkpt>
      <trkpt lat="50.23852" lon="5.09738">
        <ele>313.62467711081</ele>
        <time>2017-06-14T14:30:39Z</time>
      </trkpt>
      <trkpt lat="50.23858" lon="5.09776">
        <ele>311.20310492476</ele>
        <time>2017-06-14T14:30:43Z</time>
      </trkpt>
      <trkpt lat="50.23864" lon="5.09818">
        <ele>312.10081411177</ele>
        <time>2017-06-14T14:30:47Z</time>
      </trkpt>
      <trkpt lat="50.23868" lon="5.09853">
        <ele>317.3795438283</ele>
        <time>2017-06-14T14:30:51Z</time>
      </trkpt>
      <trkpt lat="50.23873" lon="5.09892">
        <ele>318.81628054991</ele>
        <time>2017-06-14T14:30:56Z</time>
      </trkpt>
      <trkpt lat="50.2388" lon="5.09939">
        <ele>318.61144723169</ele>
        <time>2017-06-14T14:31:01Z</time>
      </trkpt>
      <trkpt lat="50.23887" lon="5.09976">
        <ele>319.94859001918</ele>
        <time>2017-06-14T14:31:05Z</time>
      </trkpt>
      <trkpt lat="50.23899" lon="5.10018">
        <ele>318.03256531909</ele>
        <time>2017-06-14T14:31:10Z</time>
      </trkpt>
      <trkpt lat="50.2391" lon="5.10053">
        <ele>317.71813598255</ele>
        <time>2017-06-14T14:31:14Z</time>
      </trkpt>
      <trkpt lat="50.23921" lon="5.10092">
        <ele>319.83366493175</ele>
        <time>2017-06-14T14:31:18Z</time>
      </trkpt>
      <trkpt lat="50.23932" lon="5.10128">
        <ele>325.31344776525</ele>
        <time>2017-06-14T14:31:22Z</time>
      </trkpt>
      <trkpt lat="50.23941" lon="5.10166">
        <ele>328.5117893328</ele>
        <time>2017-06-14T14:31:26Z</time>
      </trkpt>
      <trkpt lat="50.2394" lon="5.10209">
        <ele>329.81317460541</ele>
        <time>2017-06-14T14:31:30Z</time>
      </trkpt>
      <trkpt lat="50.23933" lon="5.10242">
        <ele>331.04903143129</ele>
        <time>2017-06-14T14:31:34Z</time>
      </trkpt>
      <trkpt lat="50.23925" lon="5.10275">
        <ele>328.69765268076</ele>
        <time>2017-06-14T14:31:38Z</time>
      </trkpt>
      <trkpt lat="50.23917" lon="5.10304">
        <ele>331.49358398644</ele>
        <time>2017-06-14T14:31:42Z</time>
      </trkpt>
      <trkpt lat="50.23914" lon="5.10348">
        <ele>324.1390734844</ele>
        <time>2017-06-14T14:31:47Z</time>
      </trkpt>
      <trkpt lat="50.23913" lon="5.10387">
        <ele>317.23806981043</ele>
        <time>2017-06-14T14:31:52Z</time>
      </trkpt>
      <trkpt lat="50.23913" lon="5.10424">
        <ele>312.46831289023</ele>
        <time>2017-06-14T14:31:57Z</time>
      </trkpt>
      <trkpt lat="50.23921" lon="5.10454">
        <ele>320.6846633211</ele>
        <time>2017-06-14T14:32:02Z</time>
      </trkpt>
      <trkpt lat="50.2393" lon="5.10478">
        <ele>323.75244944729</ele>
        <time>2017-06-14T14:32:06Z</time>
      </trkpt>
      <trkpt lat="50.23943" lon="5.10505">
        <ele>321.61605295584</ele>
        <time>2017-06-14T14:32:11Z</time>
      </trkpt>
      <trkpt lat="50.23953" lon="5.1053">
        <ele>321.74772644463</ele>
        <time>2017-06-14T14:32:15Z</time>
      </trkpt>
      <trkpt lat="50.23966" lon="5.10559">
        <ele>325.37737736257</ele>
        <time>2017-06-14T14:32:19Z</time>
      </trkpt>
      <trkpt lat="50.23983" lon="5.1059">
        <ele>325.38227222486</ele>
        <time>2017-06-14T14:32:24Z</time>
      </trkpt>
      <trkpt lat="50.24006" lon="5.1063">
        <ele>321.44044368963</ele>
        <time>2017-06-14T14:32:29Z</time>
      </trkpt>
      <trkpt lat="50.24026" lon="5.10653">
        <ele>320.99769586542</ele>
        <time>2017-06-14T14:32:33Z</time>
      </trkpt>
      <trkpt lat="50.24047" lon="5.1067">
        <ele>316.79635039802</ele>
        <time>2017-06-14T14:32:37Z</time>
      </trkpt>
      <trkpt lat="50.24076" lon="5.1069">
        <ele>312.71526836658</ele>
        <time>2017-06-14T14:32:42Z</time>
      </trkpt>
      <trkpt lat="50.24102" lon="5.10708">
        <ele>312.58350593706</ele>
        <time>2017-06-14T14:32:47Z</time>
      </trkpt>
      <trkpt lat="50.24128" lon="5.10728">
        <ele>316.59569847479</ele>
        <time>2017-06-14T14:32:52Z</time>
      </trkpt>
      <trkpt lat="50.24148" lon="5.10749">
        <ele>319.35642141811</ele>
        <time>2017-06-14T14:32:56Z</time>
      </trkpt>
      <trkpt lat="50.24169" lon="5.10786">
        <ele>318.90406220993</ele>
        <time>2017-06-14T14:33:01Z</time>
      </trkpt>
      <trkpt lat="50.24182" lon="5.10809">
        <ele>314.81037711833</ele>
        <time>2017-06-14T14:33:05Z</time>
      </trkpt>
      <trkpt lat="50.24196" lon="5.10834">
        <ele>312.30085224113</ele>
        <time>2017-06-14T14:33:09Z</time>
      </trkpt>
      <trkpt lat="50.24212" lon="5.10866">
        <ele>311.36960476425</ele>
        <time>2017-06-14T14:33:13Z</time>
      </trkpt>
      <trkpt lat="50.24231" lon="5.10907">
        <ele>312.71978591666</ele>
        <time>2017-06-14T14:33:18Z</time>
      </trkpt>
      <trkpt lat="50.24247" lon="5.10942">
        <ele>316.79739946123</ele>
        <time>2017-06-14T14:33:23Z</time>
      </trkpt>
      <trkpt lat="50.2426" lon="5.10971">
        <ele>321.6404138438</ele>
        <time>2017-06-14T14:33:27Z</time>
      </trkpt>
      <trkpt lat="50.24276" lon="5.11012">
        <ele>326.69134496849</ele>
        <time>2017-06-14T14:33:32Z</time>
      </trkpt>
      <trkpt lat="50.24289" lon="5.11044">
        <ele>327.81127705427</ele>
        <time>2017-06-14T14:33:36Z</time>
      </trkpt>
      <trkpt lat="50.24305" lon="5.11084">
        <ele>329.27481495841</ele>
        <time>2017-06-14T14:33:41Z</time>
      </trkpt>
      <trkpt lat="50.24318" lon="5.11121">
        <ele>327.88716280844</ele>
        <time>2017-06-14T14:33:45Z</time>
      </trkpt>
      <trkpt lat="50.24331" lon="5.11165">
        <ele>327.95412709582</ele>
        <time>2017-06-14T14:33:50Z</time>
      </trkpt>
      <trkpt lat="50.24342" lon="5.112">
        <ele>326.54105389841</ele>
        <time>2017-06-14T14:33:54Z</time>
      </trkpt>
      <trkpt lat="50.24353" lon="5.11234">
        <ele>326.65099873793</ele>
        <time>2017-06-14T14:33:58Z</time>
      </trkpt>
      <trkpt lat="50.24363" lon="5.11271">
        <ele>328.00803057624</ele>
        <time>2017-06-14T14:34:02Z</time>
      </trkpt>
      <trkpt lat="50.24373" lon="5.1131">
        <ele>329.92689324166</ele>
        <time>2017-06-14T14:34:06Z</time>
      </trkpt>
      <trkpt lat="50.24385" lon="5.11356">
        <ele>329.20754406258</ele>
        <time>2017-06-14T14:34:11Z</time>
      </trkpt>
      <trkpt lat="50.24395" lon="5.11402">
        <ele>328.93582240106</ele>
        <time>2017-06-14T14:34:16Z</time>
      </trkpt>
      <trkpt lat="50.24403" lon="5.11435">
        <ele>329.54582479785</ele>
        <time>2017-06-14T14:34:20Z</time>
      </trkpt>
      <trkpt lat="50.24416" lon="5.11479">
        <ele>324.96902310512</ele>
        <time>2017-06-14T14:34:25Z</time>
      </trkpt>
      <trkpt lat="50.24428" lon="5.11516">
        <ele>324.75881833312</ele>
        <time>2017-06-14T14:34:29Z</time>
      </trkpt>
      <trkpt lat="50.24441" lon="5.11552">
        <ele>326.06808083579</ele>
        <time>2017-06-14T14:34:33Z</time>
      </trkpt>
      <trkpt lat="50.2446" lon="5.11597">
        <ele>322.87150616176</ele>
        <time>2017-06-14T14:34:38Z</time>
      </trkpt>
      <trkpt lat="50.24473" lon="5.1163">
        <ele>322.47683983866</ele>
        <time>2017-06-14T14:34:42Z</time>
      </trkpt>
      <trkpt lat="50.24492" lon="5.11676">
        <ele>322.9442402319</ele>
        <time>2017-06-14T14:34:47Z</time>
      </trkpt>
      <trkpt lat="50.2451" lon="5.11717">
        <ele>325.01597198304</ele>
        <time>2017-06-14T14:34:52Z</time>
      </trkpt>
      <trkpt lat="50.24524" lon="5.11751">
        <ele>325.73966157174</ele>
        <time>2017-06-14T14:34:56Z</time>
      </trkpt>
      <trkpt lat="50.24542" lon="5.11798">
        <ele>324.75694061638</ele>
        <time>2017-06-14T14:35:01Z</time>
      </trkpt>
      <trkpt lat="50.24558" lon="5.11839">
        <ele>323.5381582129</ele>
        <time>2017-06-14T14:35:05Z</time>
      </trkpt>
      <trkpt lat="50.24575" lon="5.11891">
        <ele>321.24894661725</ele>
        <time>2017-06-14T14:35:10Z</time>
      </trkpt>
      <trkpt lat="50.24585" lon="5.11931">
        <ele>319.50652188094</ele>
        <time>2017-06-14T14:35:14Z</time>
      </trkpt>
      <trkpt lat="50.24594" lon="5.11969">
        <ele>319.72606074734</ele>
        <time>2017-06-14T14:35:18Z</time>
      </trkpt>
      <trkpt lat="50.24606" lon="5.12007">
        <ele>320.17399233469</ele>
        <time>2017-06-14T14:35:22Z</time>
      </trkpt>
      <trkpt lat="50.24622" lon="5.12052">
        <ele>319.65195551716</ele>
        <time>2017-06-14T14:35:27Z</time>
      </trkpt>
      <trkpt lat="50.24639" lon="5.12096">
        <ele>320.81947812342</ele>
        <time>2017-06-14T14:35:32Z</time>
      </trkpt>
      <trkpt lat="50.24655" lon="5.12128">
        <ele>322.03000255777</ele>
        <time>2017-06-14T14:35:36Z</time>
      </trkpt>
      <trkpt lat="50.24673" lon="5.1216">
        <ele>322.05810083863</ele>
        <time>2017-06-14T14:35:40Z</time>
      </trkpt>
      <trkpt lat="50.24692" lon="5.12201">
        <ele>320.8192596792</ele>
        <time>2017-06-14T14:35:45Z</time>
      </trkpt>
      <trkpt lat="50.24707" lon="5.12234">
        <ele>321.61111555177</ele>
        <time>2017-06-14T14:35:49Z</time>
      </trkpt>
      <trkpt lat="50.24725" lon="5.12274">
        <ele>325.55693616214</ele>
        <time>2017-06-14T14:35:54Z</time>
      </trkpt>
      <trkpt lat="50.24738" lon="5.12307">
        <ele>326.11060232368</ele>
        <time>2017-06-14T14:35:58Z</time>
      </trkpt>
      <trkpt lat="50.24754" lon="5.12353">
        <ele>326.72847722666</ele>
        <time>2017-06-14T14:36:03Z</time>
      </trkpt>
      <trkpt lat="50.24768" lon="5.12396">
        <ele>324.60395945915</ele>
        <time>2017-06-14T14:36:08Z</time>
      </trkpt>
      <trkpt lat="50.24778" lon="5.12431">
        <ele>322.50000448403</ele>
        <time>2017-06-14T14:36:12Z</time>
      </trkpt>
      <trkpt lat="50.2479" lon="5.12479">
        <ele>321.31642130188</ele>
        <time>2017-06-14T14:36:17Z</time>
      </trkpt>
      <trkpt lat="50.24797" lon="5.12518">
        <ele>319.99586160058</ele>
        <time>2017-06-14T14:36:21Z</time>
      </trkpt>
      <trkpt lat="50.24801" lon="5.1256">
        <ele>316.74303101041</ele>
        <time>2017-06-14T14:36:25Z</time>
      </trkpt>
      <trkpt lat="50.24804" lon="5.12607">
        <ele>314.66832432715</ele>
        <time>2017-06-14T14:36:29Z</time>
      </trkpt>
      <trkpt lat="50.24807" lon="5.12661">
        <ele>313.12219957423</ele>
        <time>2017-06-14T14:36:34Z</time>
      </trkpt>
      <trkpt lat="50.24809" lon="5.127">
        <ele>312.36382549745</ele>
        <time>2017-06-14T14:36:38Z</time>
      </trkpt>
      <trkpt lat="50.24811" lon="5.12741">
        <ele>311.47283222955</ele>
        <time>2017-06-14T14:36:42Z</time>
      </trkpt>
      <trkpt lat="50.24814" lon="5.12787">
        <ele>309.38081549011</ele>
        <time>2017-06-14T14:36:46Z</time>
      </trkpt>
      <trkpt lat="50.24819" lon="5.12841">
        <ele>305.5711972441</ele>
        <time>2017-06-14T14:36:51Z</time>
      </trkpt>
      <trkpt lat="50.24829" lon="5.12857">
        <ele>304.36946642339</ele>
        <time>2017-06-14T14:36:55Z</time>
      </trkpt>
      <trkpt lat="50.24834" lon="5.12867">
        <ele>303.68729438879</ele>
        <time>2017-06-14T14:37:02Z</time>
      </trkpt>
      <trkpt lat="50.24831" lon="5.12921">
        <ele>305.19919503423</ele>
        <time>2017-06-14T14:37:07Z</time>
      </trkpt>
      <trkpt lat="50.24829" lon="5.12981">
        <ele>302.15882944093</ele>
        <time>2017-06-14T14:37:12Z</time>
      </trkpt>
      <trkpt lat="50.24817" lon="5.13023">
        <ele>303.10698353369</ele>
        <time>2017-06-14T14:37:16Z</time>
      </trkpt>
      <trkpt lat="50.24798" lon="5.13072">
        <ele>306.66575886627</ele>
        <time>2017-06-14T14:37:21Z</time>
      </trkpt>
      <trkpt lat="50.24776" lon="5.1312">
        <ele>308.77417804623</ele>
        <time>2017-06-14T14:37:26Z</time>
      </trkpt>
      <trkpt lat="50.24754" lon="5.13151">
        <ele>309.86694271134</ele>
        <time>2017-06-14T14:37:31Z</time>
      </trkpt>
      <trkpt lat="50.24735" lon="5.13174">
        <ele>311.32285349873</ele>
        <time>2017-06-14T14:37:35Z</time>
      </trkpt>
      <trkpt lat="50.24715" lon="5.13199">
        <ele>309.76093929634</ele>
        <time>2017-06-14T14:37:40Z</time>
      </trkpt>
      <trkpt lat="50.24701" lon="5.13221">
        <ele>309.46761016798</ele>
        <time>2017-06-14T14:37:44Z</time>
      </trkpt>
      <trkpt lat="50.24693" lon="5.13239">
        <ele>308.74521294796</ele>
        <time>2017-06-14T14:37:48Z</time>
      </trkpt>
      <trkpt lat="50.24702" lon="5.13251">
        <ele>308.08890255126</ele>
        <time>2017-06-14T14:37:53Z</time>
      </trkpt>
      <trkpt lat="50.24726" lon="5.1327">
        <ele>305.49217522746</ele>
        <time>2017-06-14T14:37:58Z</time>
      </trkpt>
      <trkpt lat="50.24747" lon="5.13288">
        <ele>303.83085241678</ele>
        <time>2017-06-14T14:38:02Z</time>
      </trkpt>
      <trkpt lat="50.24766" lon="5.13306">
        <ele>301.06609390185</ele>
        <time>2017-06-14T14:38:06Z</time>
      </trkpt>
      <trkpt lat="50.24785" lon="5.13323">
        <ele>299.69234754417</ele>
        <time>2017-06-14T14:38:11Z</time>
      </trkpt>
      <trkpt lat="50.24799" lon="5.13338">
        <ele>299.12526810977</ele>
        <time>2017-06-14T14:38:15Z</time>
      </trkpt>
      <trkpt lat="50.24818" lon="5.13356">
        <ele>296.88536862544</ele>
        <time>2017-06-14T14:38:19Z</time>
      </trkpt>
      <trkpt lat="50.24844" lon="5.13379">
        <ele>294.0304571764</ele>
        <time>2017-06-14T14:38:24Z</time>
      </trkpt>
      <trkpt lat="50.24871" lon="5.134">
        <ele>295.8288727809</ele>
        <time>2017-06-14T14:38:29Z</time>
      </trkpt>
      <trkpt lat="50.24891" lon="5.13416">
        <ele>297.59194812384</ele>
        <time>2017-06-14T14:38:33Z</time>
      </trkpt>
      <trkpt lat="50.24919" lon="5.13442">
        <ele>291.68350277941</ele>
        <time>2017-06-14T14:38:38Z</time>
      </trkpt>
      <trkpt lat="50.24947" lon="5.13462">
        <ele>286.56375071806</ele>
        <time>2017-06-14T14:38:43Z</time>
      </trkpt>
      <trkpt lat="50.24962" lon="5.13446">
        <ele>289.28702334997</ele>
        <time>2017-06-14T14:38:47Z</time>
      </trkpt>
      <trkpt lat="50.24987" lon="5.13412">
        <ele>296.28630082259</ele>
        <time>2017-06-14T14:38:52Z</time>
      </trkpt>
      <trkpt lat="50.25009" lon="5.13389">
        <ele>300.40042444916</ele>
        <time>2017-06-14T14:38:56Z</time>
      </trkpt>
      <trkpt lat="50.25037" lon="5.13367">
        <ele>304.43849528096</ele>
        <time>2017-06-14T14:39:01Z</time>
      </trkpt>
      <trkpt lat="50.25062" lon="5.1336">
        <ele>305.33887309282</ele>
        <time>2017-06-14T14:39:05Z</time>
      </trkpt>
      <trkpt lat="50.25086" lon="5.13356">
        <ele>302.01543502478</ele>
        <time>2017-06-14T14:39:09Z</time>
      </trkpt>
      <trkpt lat="50.2511" lon="5.13356">
        <ele>302.42793731058</ele>
        <time>2017-06-14T14:39:13Z</time>
      </trkpt>
      <trkpt lat="50.25133" lon="5.13354">
        <ele>304.84074298259</ele>
        <time>2017-06-14T14:39:17Z</time>
      </trkpt>
      <trkpt lat="50.25162" lon="5.1335">
        <ele>306.31566740961</ele>
        <time>2017-06-14T14:39:22Z</time>
      </trkpt>
      <trkpt lat="50.25186" lon="5.13341">
        <ele>305.9348790563</ele>
        <time>2017-06-14T14:39:26Z</time>
      </trkpt>
      <trkpt lat="50.25217" lon="5.1333">
        <ele>307.89767546715</ele>
        <time>2017-06-14T14:39:31Z</time>
      </trkpt>
      <trkpt lat="50.25243" lon="5.13321">
        <ele>306.80516305858</ele>
        <time>2017-06-14T14:39:35Z</time>
      </trkpt>
      <trkpt lat="50.25268" lon="5.13311">
        <ele>308.34914228672</ele>
        <time>2017-06-14T14:39:39Z</time>
      </trkpt>
      <trkpt lat="50.25303" lon="5.13301">
        <ele>308.11367402611</ele>
        <time>2017-06-14T14:39:44Z</time>
      </trkpt>
      <trkpt lat="50.25328" lon="5.13317">
        <ele>307.89157251784</ele>
        <time>2017-06-14T14:39:48Z</time>
      </trkpt>
      <trkpt lat="50.25357" lon="5.13351">
        <ele>309.1179964097</ele>
        <time>2017-06-14T14:39:53Z</time>
      </trkpt>
      <trkpt lat="50.25386" lon="5.13396">
        <ele>305.00315492722</ele>
        <time>2017-06-14T14:39:58Z</time>
      </trkpt>
      <trkpt lat="50.25416" lon="5.13445">
        <ele>303.7664135164</ele>
        <time>2017-06-14T14:40:03Z</time>
      </trkpt>
      <trkpt lat="50.25441" lon="5.13485">
        <ele>303.64261022156</ele>
        <time>2017-06-14T14:40:07Z</time>
      </trkpt>
      <trkpt lat="50.2547" lon="5.13524">
        <ele>301.18259250013</ele>
        <time>2017-06-14T14:40:11Z</time>
      </trkpt>
      <trkpt lat="50.25502" lon="5.13562">
        <ele>300.50997808751</ele>
        <time>2017-06-14T14:40:15Z</time>
      </trkpt>
      <trkpt lat="50.25543" lon="5.13607">
        <ele>299.39168161019</ele>
        <time>2017-06-14T14:40:20Z</time>
      </trkpt>
      <trkpt lat="50.25574" lon="5.13644">
        <ele>296.93378412063</ele>
        <time>2017-06-14T14:40:24Z</time>
      </trkpt>
      <trkpt lat="50.25608" lon="5.13687">
        <ele>298.59132105868</ele>
        <time>2017-06-14T14:40:29Z</time>
      </trkpt>
      <trkpt lat="50.25636" lon="5.13722">
        <ele>298.62246795324</ele>
        <time>2017-06-14T14:40:34Z</time>
      </trkpt>
      <trkpt lat="50.25663" lon="5.13745">
        <ele>292.76246412758</ele>
        <time>2017-06-14T14:40:38Z</time>
      </trkpt>
      <trkpt lat="50.25684" lon="5.13755">
        <ele>284.99669231666</ele>
        <time>2017-06-14T14:40:42Z</time>
      </trkpt>
      <trkpt lat="50.25702" lon="5.1376">
        <ele>284.62337655748</ele>
        <time>2017-06-14T14:40:47Z</time>
      </trkpt>
      <trkpt lat="50.25727" lon="5.13737">
        <ele>285.30828147384</ele>
        <time>2017-06-14T14:40:52Z</time>
      </trkpt>
      <trkpt lat="50.25743" lon="5.13712">
        <ele>286.31762201568</ele>
        <time>2017-06-14T14:40:56Z</time>
      </trkpt>
      <trkpt lat="50.25755" lon="5.13698">
        <ele>286.45895879421</ele>
        <time>2017-06-14T14:41:01Z</time>
      </trkpt>
      <trkpt lat="50.25749" lon="5.13687">
        <ele>279.24200401688</ele>
        <time>2017-06-14T14:46:01Z</time>
      </trkpt>
      <trkpt lat="50.25755" lon="5.1369">
        <ele>278.89915519111</ele>
        <time>2017-06-14T14:47:05Z</time>
      </trkpt>
      <trkpt lat="50.25764" lon="5.13696">
        <ele>278.82329793249</ele>
        <time>2017-06-14T14:47:09Z</time>
      </trkpt>
      <trkpt lat="50.25768" lon="5.13699">
        <ele>275.15693402152</ele>
        <time>2017-06-14T14:47:37Z</time>
      </trkpt>
      <trkpt lat="50.25769" lon="5.13708">
        <ele>275.46535039857</ele>
        <time>2017-06-14T14:48:13Z</time>
      </trkpt>
      <trkpt lat="50.25757" lon="5.13697">
        <ele>275.87325408095</ele>
        <time>2017-06-14T14:48:18Z</time>
      </trkpt>
      <trkpt lat="50.25749" lon="5.13701">
        <ele>277.022308094</ele>
        <time>2017-06-14T14:49:19Z</time>
      </trkpt>
      <trkpt lat="50.25753" lon="5.1369">
        <ele>278.27162342423</ele>
        <time>2017-06-14T14:49:30Z</time>
      </trkpt>
      <trkpt lat="50.25761" lon="5.13683">
        <ele>279.11662285548</ele>
        <time>2017-06-14T14:49:34Z</time>
      </trkpt>
      <trkpt lat="50.25769" lon="5.13688">
        <ele>283.71598784759</ele>
        <time>2017-06-14T14:49:46Z</time>
      </trkpt>
      <trkpt lat="50.25761" lon="5.13696">
        <ele>286.23880455221</ele>
        <time>2017-06-14T14:49:58Z</time>
      </trkpt>
      <trkpt lat="50.25754" lon="5.13701">
        <ele>285.23495355063</ele>
        <time>2017-06-14T14:50:09Z</time>
      </trkpt>
      <trkpt lat="50.25751" lon="5.13688">
        <ele>285.09196652097</ele>
        <time>2017-06-14T14:50:20Z</time>
      </trkpt>
      <trkpt lat="50.25757" lon="5.13698">
        <ele>282.25560544783</ele>
        <time>2017-06-14T14:50:46Z</time>
      </trkpt>
      <trkpt lat="50.25749" lon="5.13703">
        <ele>288.2713182734</ele>
        <time>2017-06-14T14:51:52Z</time>
      </trkpt>
      <trkpt lat="50.25755" lon="5.13694">
        <ele>287.52601969463</ele>
        <time>2017-06-14T14:52:54Z</time>
      </trkpt>
      <trkpt lat="50.25752" lon="5.13707">
        <ele>288.88355022713</ele>
        <time>2017-06-14T14:54:00Z</time>
      </trkpt>
      <trkpt lat="50.25761" lon="5.13705">
        <ele>297.64597758576</ele>
        <time>2017-06-14T14:57:00Z</time>
      </trkpt>
      <trkpt lat="50.25792" lon="5.1368">
        <ele>297.71135771282</ele>
        <time>2017-06-14T14:57:05Z</time>
      </trkpt>
      <trkpt lat="50.25819" lon="5.13672">
        <ele>291.20309919033</ele>
        <time>2017-06-14T14:57:09Z</time>
      </trkpt>
      <trkpt lat="50.25852" lon="5.13671">
        <ele>283.9942369731</ele>
        <time>2017-06-14T14:57:14Z</time>
      </trkpt>
      <trkpt lat="50.25879" lon="5.1367">
        <ele>280.99972675111</ele>
        <time>2017-06-14T14:57:18Z</time>
      </trkpt>
      <trkpt lat="50.25917" lon="5.13668">
        <ele>280.11987965298</ele>
        <time>2017-06-14T14:57:23Z</time>
      </trkpt>
      <trkpt lat="50.25942" lon="5.13659">
        <ele>276.7338137188</ele>
        <time>2017-06-14T14:57:27Z</time>
      </trkpt>
      <trkpt lat="50.25962" lon="5.13639">
        <ele>273.31456559768</ele>
        <time>2017-06-14T14:57:31Z</time>
      </trkpt>
      <trkpt lat="50.25979" lon="5.13609">
        <ele>273.37804373081</ele>
        <time>2017-06-14T14:57:35Z</time>
      </trkpt>
      <trkpt lat="50.25993" lon="5.13586">
        <ele>273.93700998389</ele>
        <time>2017-06-14T14:57:39Z</time>
      </trkpt>
      <trkpt lat="50.26019" lon="5.13567">
        <ele>275.23108813994</ele>
        <time>2017-06-14T14:57:44Z</time>
      </trkpt>
      <trkpt lat="50.26039" lon="5.13543">
        <ele>277.86378997667</ele>
        <time>2017-06-14T14:57:48Z</time>
      </trkpt>
      <trkpt lat="50.26043" lon="5.13512">
        <ele>272.51904457608</ele>
        <time>2017-06-14T14:57:52Z</time>
      </trkpt>
      <trkpt lat="50.26047" lon="5.13471">
        <ele>269.80571711841</ele>
        <time>2017-06-14T14:57:56Z</time>
      </trkpt>
      <trkpt lat="50.26054" lon="5.13432">
        <ele>270.12497897122</ele>
        <time>2017-06-14T14:58:00Z</time>
      </trkpt>
      <trkpt lat="50.26061" lon="5.1338">
        <ele>271.50680886676</ele>
        <time>2017-06-14T14:58:05Z</time>
      </trkpt>
      <trkpt lat="50.26067" lon="5.13351">
        <ele>269.54500723808</ele>
        <time>2017-06-14T14:58:09Z</time>
      </trkpt>
      <trkpt lat="50.26073" lon="5.13326">
        <ele>269.19423052297</ele>
        <time>2017-06-14T14:58:14Z</time>
      </trkpt>
      <trkpt lat="50.26084" lon="5.13311">
        <ele>268.38182799604</ele>
        <time>2017-06-14T14:58:18Z</time>
      </trkpt>
      <trkpt lat="50.26094" lon="5.13314">
        <ele>269.14391222435</ele>
        <time>2017-06-14T14:58:23Z</time>
      </trkpt>
      <trkpt lat="50.26096" lon="5.13325">
        <ele>271.05449611833</ele>
        <time>2017-06-14T14:58:51Z</time>
      </trkpt>
      <trkpt lat="50.26098" lon="5.13331">
        <ele>271.98146575332</ele>
        <time>2017-06-14T14:59:35Z</time>
      </trkpt>
      <trkpt lat="50.26093" lon="5.13336">
        <ele>327.89690393425</ele>
        <time>2017-06-14T15:03:22Z</time>
      </trkpt>
      <trkpt lat="50.26088" lon="5.13348">
        <ele>299.21485938449</ele>
        <time>2017-06-14T15:05:03Z</time>
      </trkpt>
      <trkpt lat="50.26092" lon="5.1334">
        <ele>280.1606650832</ele>
        <time>2017-06-14T15:17:07Z</time>
      </trkpt>
      <trkpt lat="50.26099" lon="5.13345">
        <ele>281.14246116365</ele>
        <time>2017-06-14T15:17:13Z</time>
      </trkpt>
      <trkpt lat="50.26093" lon="5.13355">
        <ele>281.73013642866</ele>
        <time>2017-06-14T15:17:23Z</time>
      </trkpt>
      <trkpt lat="50.26092" lon="5.13341">
        <ele>282.60638873748</ele>
        <time>2017-06-14T15:20:45Z</time>
      </trkpt>
      <trkpt lat="50.26091" lon="5.13355">
        <ele>273.98602330344</ele>
        <time>2017-06-14T15:48:35Z</time>
      </trkpt>
      <trkpt lat="50.26088" lon="5.13342">
        <ele>276.01902206632</ele>
        <time>2017-06-14T15:49:18Z</time>
      </trkpt>
      <trkpt lat="50.26094" lon="5.13353">
        <ele>278.48017812232</ele>
        <time>2017-06-14T16:06:08Z</time>
      </trkpt>
      <trkpt lat="50.26091" lon="5.1334">
        <ele>282.14698353713</ele>
        <time>2017-06-14T16:17:26Z</time>
      </trkpt>
      <trkpt lat="50.26091" lon="5.13349">
        <ele>288.72614714201</ele>
        <time>2017-06-14T16:43:27Z</time>
      </trkpt>
      <trkpt lat="50.26096" lon="5.1334">
        <ele>285.67780571863</ele>
        <time>2017-06-14T16:53:26Z</time>
      </trkpt>
      <trkpt lat="50.26104" lon="5.13335">
        <ele>286.28500951602</ele>
        <time>2017-06-14T16:53:31Z</time>
      </trkpt>
      <trkpt lat="50.26106" lon="5.13334">
        <ele>286.41480669377</ele>
        <time>2017-06-14T16:53:33Z</time>
      </trkpt>
      <trkpt lat="50.26094" lon="5.13296">
        <ele>258.26784667259</ele>
        <time>2017-06-14T17:10:32Z</time>
      </trkpt>
      <trkpt lat="50.2609" lon="5.13308">
        <ele>260.74091425566</ele>
        <time>2017-06-14T17:10:48Z</time>
      </trkpt>
      <trkpt lat="50.26083" lon="5.13313">
        <ele>287.21533938234</ele>
        <time>2017-06-14T17:21:10Z</time>
      </trkpt>
      <trkpt lat="50.26075" lon="5.13325">
        <ele>286.64762843539</ele>
        <time>2017-06-14T17:21:15Z</time>
      </trkpt>
      <trkpt lat="50.26073" lon="5.13312">
        <ele>283.52486186655</ele>
        <time>2017-06-14T17:21:23Z</time>
      </trkpt>
      <trkpt lat="50.26082" lon="5.13272">
        <ele>282.30444125222</ele>
        <time>2017-06-14T17:21:28Z</time>
      </trkpt>
      <trkpt lat="50.26088" lon="5.13237">
        <ele>282.36294902027</ele>
        <time>2017-06-14T17:21:32Z</time>
      </trkpt>
      <trkpt lat="50.2609" lon="5.13203">
        <ele>282.51321371276</ele>
        <time>2017-06-14T17:21:36Z</time>
      </trkpt>
      <trkpt lat="50.26099" lon="5.13164">
        <ele>281.05197821573</ele>
        <time>2017-06-14T17:21:41Z</time>
      </trkpt>
      <trkpt lat="50.26111" lon="5.13151">
        <ele>281.51460408026</ele>
        <time>2017-06-14T17:21:45Z</time>
      </trkpt>
      <trkpt lat="50.26128" lon="5.13161">
        <ele>283.00705454061</ele>
        <time>2017-06-14T17:21:50Z</time>
      </trkpt>
      <trkpt lat="50.26135" lon="5.13194">
        <ele>285.99958319578</ele>
        <time>2017-06-14T17:21:55Z</time>
      </trkpt>
      <trkpt lat="50.26143" lon="5.13228">
        <ele>286.88716162952</ele>
        <time>2017-06-14T17:21:59Z</time>
      </trkpt>
      <trkpt lat="50.26159" lon="5.13257">
        <ele>287.86116569236</ele>
        <time>2017-06-14T17:22:03Z</time>
      </trkpt>
      <trkpt lat="50.26179" lon="5.13283">
        <ele>289.73157940669</ele>
        <time>2017-06-14T17:22:08Z</time>
      </trkpt>
      <trkpt lat="50.26195" lon="5.13304">
        <ele>291.99573795657</ele>
        <time>2017-06-14T17:22:12Z</time>
      </trkpt>
      <trkpt lat="50.26213" lon="5.1333">
        <ele>292.16253367676</ele>
        <time>2017-06-14T17:22:17Z</time>
      </trkpt>
      <trkpt lat="50.2623" lon="5.13355">
        <ele>294.50796085354</ele>
        <time>2017-06-14T17:22:22Z</time>
      </trkpt>
      <trkpt lat="50.26244" lon="5.13375">
        <ele>297.72984453122</ele>
        <time>2017-06-14T17:22:26Z</time>
      </trkpt>
      <trkpt lat="50.26263" lon="5.13401">
        <ele>301.32267016458</ele>
        <time>2017-06-14T17:22:31Z</time>
      </trkpt>
      <trkpt lat="50.26279" lon="5.13423">
        <ele>302.49628177789</ele>
        <time>2017-06-14T17:22:35Z</time>
      </trkpt>
      <trkpt lat="50.26295" lon="5.13444">
        <ele>303.63650358662</ele>
        <time>2017-06-14T17:22:39Z</time>
      </trkpt>
      <trkpt lat="50.26313" lon="5.1347">
        <ele>304.91789387798</ele>
        <time>2017-06-14T17:22:44Z</time>
      </trkpt>
      <trkpt lat="50.26328" lon="5.13493">
        <ele>305.47967134919</ele>
        <time>2017-06-14T17:22:48Z</time>
      </trkpt>
      <trkpt lat="50.26343" lon="5.13517">
        <ele>305.89364348749</ele>
        <time>2017-06-14T17:22:52Z</time>
      </trkpt>
      <trkpt lat="50.26357" lon="5.13542">
        <ele>305.89658572238</ele>
        <time>2017-06-14T17:22:56Z</time>
      </trkpt>
      <trkpt lat="50.26371" lon="5.13575">
        <ele>306.93616143537</ele>
        <time>2017-06-14T17:23:01Z</time>
      </trkpt>
      <trkpt lat="50.26383" lon="5.13602">
        <ele>308.30594573216</ele>
        <time>2017-06-14T17:23:05Z</time>
      </trkpt>
      <trkpt lat="50.26394" lon="5.13629">
        <ele>308.86867345886</ele>
        <time>2017-06-14T17:23:09Z</time>
      </trkpt>
      <trkpt lat="50.26406" lon="5.13657">
        <ele>310.05235732008</ele>
        <time>2017-06-14T17:23:13Z</time>
      </trkpt>
      <trkpt lat="50.26421" lon="5.13691">
        <ele>311.4797837009</ele>
        <time>2017-06-14T17:23:18Z</time>
      </trkpt>
      <trkpt lat="50.26435" lon="5.13726">
        <ele>312.32051803073</ele>
        <time>2017-06-14T17:23:23Z</time>
      </trkpt>
      <trkpt lat="50.26447" lon="5.13754">
        <ele>313.56699807096</ele>
        <time>2017-06-14T17:23:27Z</time>
      </trkpt>
      <trkpt lat="50.26462" lon="5.13788">
        <ele>315.15363410271</ele>
        <time>2017-06-14T17:23:32Z</time>
      </trkpt>
      <trkpt lat="50.26474" lon="5.13817">
        <ele>315.95859731666</ele>
        <time>2017-06-14T17:23:36Z</time>
      </trkpt>
      <trkpt lat="50.26487" lon="5.13844">
        <ele>316.30204461768</ele>
        <time>2017-06-14T17:23:40Z</time>
      </trkpt>
      <trkpt lat="50.265" lon="5.13874">
        <ele>316.14425076214</ele>
        <time>2017-06-14T17:23:44Z</time>
      </trkpt>
      <trkpt lat="50.26515" lon="5.13909">
        <ele>316.21382218885</ele>
        <time>2017-06-14T17:23:49Z</time>
      </trkpt>
      <trkpt lat="50.26527" lon="5.13936">
        <ele>317.52095500196</ele>
        <time>2017-06-14T17:23:53Z</time>
      </trkpt>
      <trkpt lat="50.26538" lon="5.13962">
        <ele>319.54179570501</ele>
        <time>2017-06-14T17:23:57Z</time>
      </trkpt>
      <trkpt lat="50.2655" lon="5.1399">
        <ele>320.86927695286</ele>
        <time>2017-06-14T17:24:01Z</time>
      </trkpt>
      <trkpt lat="50.26565" lon="5.14024">
        <ele>321.99729897548</ele>
        <time>2017-06-14T17:24:06Z</time>
      </trkpt>
      <trkpt lat="50.26577" lon="5.14053">
        <ele>322.73329724439</ele>
        <time>2017-06-14T17:24:10Z</time>
      </trkpt>
      <trkpt lat="50.26592" lon="5.14089">
        <ele>323.68410235172</ele>
        <time>2017-06-14T17:24:15Z</time>
      </trkpt>
      <trkpt lat="50.26605" lon="5.14119">
        <ele>324.48668140376</ele>
        <time>2017-06-14T17:24:19Z</time>
      </trkpt>
      <trkpt lat="50.26621" lon="5.14157">
        <ele>325.14300577111</ele>
        <time>2017-06-14T17:24:24Z</time>
      </trkpt>
      <trkpt lat="50.26634" lon="5.14187">
        <ele>325.27610557412</ele>
        <time>2017-06-14T17:24:28Z</time>
      </trkpt>
      <trkpt lat="50.2665" lon="5.14223">
        <ele>326.14190500794</ele>
        <time>2017-06-14T17:24:33Z</time>
      </trkpt>
      <trkpt lat="50.26663" lon="5.14253">
        <ele>326.69058639362</ele>
        <time>2017-06-14T17:24:37Z</time>
      </trkpt>
      <trkpt lat="50.26676" lon="5.14284">
        <ele>326.95328817816</ele>
        <time>2017-06-14T17:24:41Z</time>
      </trkpt>
      <trkpt lat="50.26691" lon="5.14322">
        <ele>328.34082113704</ele>
        <time>2017-06-14T17:24:46Z</time>
      </trkpt>
      <trkpt lat="50.26704" lon="5.14354">
        <ele>328.55396015459</ele>
        <time>2017-06-14T17:24:50Z</time>
      </trkpt>
      <trkpt lat="50.26717" lon="5.14386">
        <ele>328.3299523047</ele>
        <time>2017-06-14T17:24:54Z</time>
      </trkpt>
      <trkpt lat="50.26729" lon="5.14417">
        <ele>328.2242840419</ele>
        <time>2017-06-14T17:24:58Z</time>
      </trkpt>
      <trkpt lat="50.26742" lon="5.14447">
        <ele>328.74045044271</ele>
        <time>2017-06-14T17:25:02Z</time>
      </trkpt>
      <trkpt lat="50.26757" lon="5.14487">
        <ele>329.78110835563</ele>
        <time>2017-06-14T17:25:07Z</time>
      </trkpt>
      <trkpt lat="50.26772" lon="5.14527">
        <ele>330.0875441961</ele>
        <time>2017-06-14T17:25:12Z</time>
      </trkpt>
      <trkpt lat="50.26785" lon="5.14559">
        <ele>330.14851905792</ele>
        <time>2017-06-14T17:25:16Z</time>
      </trkpt>
      <trkpt lat="50.26797" lon="5.1459">
        <ele>331.11050689466</ele>
        <time>2017-06-14T17:25:20Z</time>
      </trkpt>
      <trkpt lat="50.26807" lon="5.14622">
        <ele>331.8903080092</ele>
        <time>2017-06-14T17:25:24Z</time>
      </trkpt>
      <trkpt lat="50.26821" lon="5.14661">
        <ele>333.12018109988</ele>
        <time>2017-06-14T17:25:29Z</time>
      </trkpt>
      <trkpt lat="50.26833" lon="5.14693">
        <ele>333.95933663136</ele>
        <time>2017-06-14T17:25:33Z</time>
      </trkpt>
      <trkpt lat="50.26844" lon="5.14726">
        <ele>335.20410207298</ele>
        <time>2017-06-14T17:25:37Z</time>
      </trkpt>
      <trkpt lat="50.26859" lon="5.14767">
        <ele>336.49890361067</ele>
        <time>2017-06-14T17:25:42Z</time>
      </trkpt>
      <trkpt lat="50.26875" lon="5.14808">
        <ele>336.6602812418</ele>
        <time>2017-06-14T17:25:47Z</time>
      </trkpt>
      <trkpt lat="50.26899" lon="5.14821">
        <ele>336.81414229571</ele>
        <time>2017-06-14T17:25:51Z</time>
      </trkpt>
      <trkpt lat="50.26929" lon="5.14811">
        <ele>336.3340801663</ele>
        <time>2017-06-14T17:25:56Z</time>
      </trkpt>
      <trkpt lat="50.26951" lon="5.148">
        <ele>334.11060205749</ele>
        <time>2017-06-14T17:26:00Z</time>
      </trkpt>
      <trkpt lat="50.26983" lon="5.14778">
        <ele>331.95905712246</ele>
        <time>2017-06-14T17:26:05Z</time>
      </trkpt>
      <trkpt lat="50.27015" lon="5.14755">
        <ele>328.73578072356</ele>
        <time>2017-06-14T17:26:09Z</time>
      </trkpt>
      <trkpt lat="50.2706" lon="5.14722">
        <ele>324.1191860006</ele>
        <time>2017-06-14T17:26:14Z</time>
      </trkpt>
      <trkpt lat="50.27101" lon="5.14694">
        <ele>320.51177273855</ele>
        <time>2017-06-14T17:26:18Z</time>
      </trkpt>
      <trkpt lat="50.27148" lon="5.14656">
        <ele>317.05187231006</ele>
        <time>2017-06-14T17:26:23Z</time>
      </trkpt>
      <trkpt lat="50.27178" lon="5.14628">
        <ele>316.81611887759</ele>
        <time>2017-06-14T17:26:27Z</time>
      </trkpt>
      <trkpt lat="50.27199" lon="5.14607">
        <ele>318.36480556144</ele>
        <time>2017-06-14T17:26:31Z</time>
      </trkpt>
      <trkpt lat="50.27223" lon="5.14584">
        <ele>320.80754578376</ele>
        <time>2017-06-14T17:26:36Z</time>
      </trkpt>
      <trkpt lat="50.27241" lon="5.14566">
        <ele>322.72989586827</ele>
        <time>2017-06-14T17:26:40Z</time>
      </trkpt>
      <trkpt lat="50.2726" lon="5.14545">
        <ele>323.70034220974</ele>
        <time>2017-06-14T17:26:45Z</time>
      </trkpt>
      <trkpt lat="50.27275" lon="5.14528">
        <ele>324.83312208699</ele>
        <time>2017-06-14T17:26:49Z</time>
      </trkpt>
      <trkpt lat="50.27286" lon="5.14511">
        <ele>325.30271101881</ele>
        <time>2017-06-14T17:26:53Z</time>
      </trkpt>
      <trkpt lat="50.27285" lon="5.14479">
        <ele>324.6449958065</ele>
        <time>2017-06-14T17:26:57Z</time>
      </trkpt>
      <trkpt lat="50.2728" lon="5.14434">
        <ele>323.40257184492</ele>
        <time>2017-06-14T17:27:02Z</time>
      </trkpt>
      <trkpt lat="50.27274" lon="5.14396">
        <ele>322.73727050433</ele>
        <time>2017-06-14T17:27:06Z</time>
      </trkpt>
      <trkpt lat="50.27266" lon="5.14349">
        <ele>323.39830456787</ele>
        <time>2017-06-14T17:27:11Z</time>
      </trkpt>
      <trkpt lat="50.27257" lon="5.14314">
        <ele>323.98756223466</ele>
        <time>2017-06-14T17:27:15Z</time>
      </trkpt>
      <trkpt lat="50.27247" lon="5.14285">
        <ele>324.35540612214</ele>
        <time>2017-06-14T17:27:19Z</time>
      </trkpt>
      <trkpt lat="50.27258" lon="5.14255">
        <ele>324.86055582683</ele>
        <time>2017-06-14T17:27:23Z</time>
      </trkpt>
      <trkpt lat="50.27277" lon="5.14207">
        <ele>326.47399803002</ele>
        <time>2017-06-14T17:27:28Z</time>
      </trkpt>
      <trkpt lat="50.27294" lon="5.14165">
        <ele>325.29470997716</ele>
        <time>2017-06-14T17:27:32Z</time>
      </trkpt>
      <trkpt lat="50.27319" lon="5.14106">
        <ele>320.40766753163</ele>
        <time>2017-06-14T17:27:37Z</time>
      </trkpt>
      <trkpt lat="50.27342" lon="5.14054">
        <ele>315.66008544362</ele>
        <time>2017-06-14T17:27:41Z</time>
      </trkpt>
      <trkpt lat="50.27363" lon="5.13995">
        <ele>312.24831824107</ele>
        <time>2017-06-14T17:27:45Z</time>
      </trkpt>
      <trkpt lat="50.2739" lon="5.13935">
        <ele>309.71656004011</ele>
        <time>2017-06-14T17:27:49Z</time>
      </trkpt>
      <trkpt lat="50.27427" lon="5.13873">
        <ele>304.44071481865</ele>
        <time>2017-06-14T17:27:54Z</time>
      </trkpt>
      <trkpt lat="50.27454" lon="5.13827">
        <ele>300.93379575466</ele>
        <time>2017-06-14T17:27:58Z</time>
      </trkpt>
      <trkpt lat="50.27476" lon="5.13783">
        <ele>298.82865764157</ele>
        <time>2017-06-14T17:28:02Z</time>
      </trkpt>
      <trkpt lat="50.27497" lon="5.13744">
        <ele>298.25271093299</ele>
        <time>2017-06-14T17:28:06Z</time>
      </trkpt>
      <trkpt lat="50.2752" lon="5.13712">
        <ele>298.82768862119</ele>
        <time>2017-06-14T17:28:10Z</time>
      </trkpt>
      <trkpt lat="50.2754" lon="5.13689">
        <ele>299.76746082583</ele>
        <time>2017-06-14T17:28:14Z</time>
      </trkpt>
      <trkpt lat="50.27563" lon="5.13664">
        <ele>299.51774237635</ele>
        <time>2017-06-14T17:28:19Z</time>
      </trkpt>
      <trkpt lat="50.27584" lon="5.13639">
        <ele>298.64377953143</ele>
        <time>2017-06-14T17:28:24Z</time>
      </trkpt>
      <trkpt lat="50.27599" lon="5.13611">
        <ele>296.10060634242</ele>
        <time>2017-06-14T17:28:29Z</time>
      </trkpt>
      <trkpt lat="50.27605" lon="5.13578">
        <ele>294.82054160911</ele>
        <time>2017-06-14T17:28:33Z</time>
      </trkpt>
      <trkpt lat="50.27604" lon="5.1354">
        <ele>294.44467898755</ele>
        <time>2017-06-14T17:28:37Z</time>
      </trkpt>
      <trkpt lat="50.27599" lon="5.13502">
        <ele>293.17397029263</ele>
        <time>2017-06-14T17:28:41Z</time>
      </trkpt>
      <trkpt lat="50.27591" lon="5.13463">
        <ele>291.05903614134</ele>
        <time>2017-06-14T17:28:45Z</time>
      </trkpt>
      <trkpt lat="50.27581" lon="5.13418">
        <ele>288.20572578985</ele>
        <time>2017-06-14T17:28:50Z</time>
      </trkpt>
      <trkpt lat="50.27573" lon="5.13375">
        <ele>284.75142775719</ele>
        <time>2017-06-14T17:28:55Z</time>
      </trkpt>
      <trkpt lat="50.27568" lon="5.13342">
        <ele>282.25923471751</ele>
        <time>2017-06-14T17:28:59Z</time>
      </trkpt>
      <trkpt lat="50.27569" lon="5.13313">
        <ele>280.61459303782</ele>
        <time>2017-06-14T17:29:03Z</time>
      </trkpt>
      <trkpt lat="50.2758" lon="5.13273">
        <ele>279.23662238333</ele>
        <time>2017-06-14T17:29:08Z</time>
      </trkpt>
      <trkpt lat="50.27597" lon="5.13242">
        <ele>277.19806433256</ele>
        <time>2017-06-14T17:29:12Z</time>
      </trkpt>
      <trkpt lat="50.27617" lon="5.13219">
        <ele>276.05077364037</ele>
        <time>2017-06-14T17:29:16Z</time>
      </trkpt>
      <trkpt lat="50.27637" lon="5.13196">
        <ele>275.06280685337</ele>
        <time>2017-06-14T17:29:20Z</time>
      </trkpt>
      <trkpt lat="50.27661" lon="5.13165">
        <ele>274.50193555637</ele>
        <time>2017-06-14T17:29:25Z</time>
      </trkpt>
      <trkpt lat="50.27678" lon="5.13141">
        <ele>274.81355367391</ele>
        <time>2017-06-14T17:29:29Z</time>
      </trkpt>
      <trkpt lat="50.27692" lon="5.13113">
        <ele>276.30120344699</ele>
        <time>2017-06-14T17:29:34Z</time>
      </trkpt>
      <trkpt lat="50.27678" lon="5.13086">
        <ele>279.14841410873</ele>
        <time>2017-06-14T17:29:39Z</time>
      </trkpt>
      <trkpt lat="50.27663" lon="5.13061">
        <ele>281.10701427166</ele>
        <time>2017-06-14T17:29:43Z</time>
      </trkpt>
      <trkpt lat="50.27646" lon="5.13025">
        <ele>280.51802484008</ele>
        <time>2017-06-14T17:29:48Z</time>
      </trkpt>
      <trkpt lat="50.27634" lon="5.12994">
        <ele>279.82183316055</ele>
        <time>2017-06-14T17:29:52Z</time>
      </trkpt>
      <trkpt lat="50.27625" lon="5.12961">
        <ele>279.95601471613</ele>
        <time>2017-06-14T17:29:56Z</time>
      </trkpt>
      <trkpt lat="50.27619" lon="5.12928">
        <ele>280.47486089706</ele>
        <time>2017-06-14T17:30:00Z</time>
      </trkpt>
      <trkpt lat="50.27612" lon="5.12887">
        <ele>281.65683926703</ele>
        <time>2017-06-14T17:30:05Z</time>
      </trkpt>
      <trkpt lat="50.2761" lon="5.12858">
        <ele>284.39062585445</ele>
        <time>2017-06-14T17:30:09Z</time>
      </trkpt>
      <trkpt lat="50.27613" lon="5.12821">
        <ele>285.79363043499</ele>
        <time>2017-06-14T17:30:13Z</time>
      </trkpt>
      <trkpt lat="50.27619" lon="5.12777">
        <ele>285.08027028452</ele>
        <time>2017-06-14T17:30:18Z</time>
      </trkpt>
      <trkpt lat="50.27625" lon="5.1274">
        <ele>285.68285327677</ele>
        <time>2017-06-14T17:30:23Z</time>
      </trkpt>
      <trkpt lat="50.27629" lon="5.1271">
        <ele>286.85189660993</ele>
        <time>2017-06-14T17:30:27Z</time>
      </trkpt>
      <trkpt lat="50.27632" lon="5.12674">
        <ele>288.26152660481</ele>
        <time>2017-06-14T17:30:32Z</time>
      </trkpt>
      <trkpt lat="50.27634" lon="5.12647">
        <ele>289.50471660598</ele>
        <time>2017-06-14T17:30:36Z</time>
      </trkpt>
      <trkpt lat="50.27641" lon="5.12612">
        <ele>291.5269205035</ele>
        <time>2017-06-14T17:30:41Z</time>
      </trkpt>
      <trkpt lat="50.2765" lon="5.12581">
        <ele>293.06943925435</ele>
        <time>2017-06-14T17:30:45Z</time>
      </trkpt>
      <trkpt lat="50.27659" lon="5.1255">
        <ele>294.23291014957</ele>
        <time>2017-06-14T17:30:49Z</time>
      </trkpt>
      <trkpt lat="50.27663" lon="5.1252">
        <ele>295.17217845852</ele>
        <time>2017-06-14T17:30:53Z</time>
      </trkpt>
      <trkpt lat="50.27663" lon="5.12489">
        <ele>297.45182564894</ele>
        <time>2017-06-14T17:30:57Z</time>
      </trkpt>
      <trkpt lat="50.27668" lon="5.12455">
        <ele>299.78869743024</ele>
        <time>2017-06-14T17:31:02Z</time>
      </trkpt>
      <trkpt lat="50.27681" lon="5.12432">
        <ele>300.08510091851</ele>
        <time>2017-06-14T17:31:06Z</time>
      </trkpt>
      <trkpt lat="50.27694" lon="5.12407">
        <ele>299.98838167553</ele>
        <time>2017-06-14T17:31:10Z</time>
      </trkpt>
      <trkpt lat="50.27705" lon="5.12381">
        <ele>300.69573185395</ele>
        <time>2017-06-14T17:31:14Z</time>
      </trkpt>
      <trkpt lat="50.27718" lon="5.12347">
        <ele>303.01950471578</ele>
        <time>2017-06-14T17:31:19Z</time>
      </trkpt>
      <trkpt lat="50.27733" lon="5.12327">
        <ele>304.63937329096</ele>
        <time>2017-06-14T17:31:23Z</time>
      </trkpt>
      <trkpt lat="50.27753" lon="5.12315">
        <ele>305.88958305502</ele>
        <time>2017-06-14T17:31:27Z</time>
      </trkpt>
      <trkpt lat="50.27778" lon="5.12293">
        <ele>304.82090127414</ele>
        <time>2017-06-14T17:31:32Z</time>
      </trkpt>
      <trkpt lat="50.27798" lon="5.12275">
        <ele>300.04079197173</ele>
        <time>2017-06-14T17:31:36Z</time>
      </trkpt>
      <trkpt lat="50.27824" lon="5.12255">
        <ele>294.69167965299</ele>
        <time>2017-06-14T17:31:41Z</time>
      </trkpt>
      <trkpt lat="50.27847" lon="5.12243">
        <ele>289.97841657692</ele>
        <time>2017-06-14T17:31:45Z</time>
      </trkpt>
      <trkpt lat="50.27869" lon="5.12235">
        <ele>294.04319607072</ele>
        <time>2017-06-14T17:31:50Z</time>
      </trkpt>
      <trkpt lat="50.27887" lon="5.12223">
        <ele>298.08473731879</ele>
        <time>2017-06-14T17:31:54Z</time>
      </trkpt>
      <trkpt lat="50.27905" lon="5.12207">
        <ele>301.76655457529</ele>
        <time>2017-06-14T17:31:58Z</time>
      </trkpt>
      <trkpt lat="50.27927" lon="5.12184">
        <ele>304.48984467258</ele>
        <time>2017-06-14T17:32:03Z</time>
      </trkpt>
      <trkpt lat="50.27942" lon="5.12159">
        <ele>306.15207507125</ele>
        <time>2017-06-14T17:32:08Z</time>
      </trkpt>
      <trkpt lat="50.27931" lon="5.12134">
        <ele>308.75086711088</ele>
        <time>2017-06-14T17:32:12Z</time>
      </trkpt>
      <trkpt lat="50.27911" lon="5.12106">
        <ele>310.19301624742</ele>
        <time>2017-06-14T17:32:16Z</time>
      </trkpt>
      <trkpt lat="50.27884" lon="5.12072">
        <ele>310.76518335807</ele>
        <time>2017-06-14T17:32:21Z</time>
      </trkpt>
      <trkpt lat="50.27859" lon="5.12037">
        <ele>310.94820935138</ele>
        <time>2017-06-14T17:32:26Z</time>
      </trkpt>
      <trkpt lat="50.27839" lon="5.12009">
        <ele>310.90039613664</ele>
        <time>2017-06-14T17:32:30Z</time>
      </trkpt>
      <trkpt lat="50.27815" lon="5.11973">
        <ele>310.69645011987</ele>
        <time>2017-06-14T17:32:35Z</time>
      </trkpt>
      <trkpt lat="50.27795" lon="5.11944">
        <ele>310.74955764517</ele>
        <time>2017-06-14T17:32:39Z</time>
      </trkpt>
      <trkpt lat="50.27775" lon="5.11908">
        <ele>310.39631159056</ele>
        <time>2017-06-14T17:32:44Z</time>
      </trkpt>
      <trkpt lat="50.27757" lon="5.11869">
        <ele>312.73940013325</ele>
        <time>2017-06-14T17:32:49Z</time>
      </trkpt>
      <trkpt lat="50.2774" lon="5.11833">
        <ele>313.79930713427</ele>
        <time>2017-06-14T17:32:53Z</time>
      </trkpt>
      <trkpt lat="50.27722" lon="5.11797">
        <ele>313.49594946766</ele>
        <time>2017-06-14T17:32:57Z</time>
      </trkpt>
      <trkpt lat="50.27698" lon="5.1175">
        <ele>312.43536559108</ele>
        <time>2017-06-14T17:33:02Z</time>
      </trkpt>
      <trkpt lat="50.2768" lon="5.11715">
        <ele>312.11190898476</ele>
        <time>2017-06-14T17:33:06Z</time>
      </trkpt>
      <trkpt lat="50.27657" lon="5.11675">
        <ele>313.78323231469</ele>
        <time>2017-06-14T17:33:11Z</time>
      </trkpt>
      <trkpt lat="50.27632" lon="5.11631">
        <ele>312.14670704914</ele>
        <time>2017-06-14T17:33:16Z</time>
      </trkpt>
      <trkpt lat="50.27615" lon="5.11598">
        <ele>308.40792401837</ele>
        <time>2017-06-14T17:33:20Z</time>
      </trkpt>
      <trkpt lat="50.27593" lon="5.11556">
        <ele>306.05580868815</ele>
        <time>2017-06-14T17:33:25Z</time>
      </trkpt>
      <trkpt lat="50.27575" lon="5.11523">
        <ele>307.61500787118</ele>
        <time>2017-06-14T17:33:29Z</time>
      </trkpt>
      <trkpt lat="50.27553" lon="5.11478">
        <ele>309.80516515406</ele>
        <time>2017-06-14T17:33:34Z</time>
      </trkpt>
      <trkpt lat="50.27527" lon="5.11427">
        <ele>309.17946355178</ele>
        <time>2017-06-14T17:33:39Z</time>
      </trkpt>
      <trkpt lat="50.27506" lon="5.11386">
        <ele>305.15053986908</ele>
        <time>2017-06-14T17:33:43Z</time>
      </trkpt>
      <trkpt lat="50.27484" lon="5.11347">
        <ele>302.57048346911</ele>
        <time>2017-06-14T17:33:47Z</time>
      </trkpt>
      <trkpt lat="50.27456" lon="5.113">
        <ele>304.17992733367</ele>
        <time>2017-06-14T17:33:52Z</time>
      </trkpt>
      <trkpt lat="50.27436" lon="5.11262">
        <ele>305.32049949748</ele>
        <time>2017-06-14T17:33:56Z</time>
      </trkpt>
      <trkpt lat="50.2741" lon="5.11211">
        <ele>305.54213582055</ele>
        <time>2017-06-14T17:34:01Z</time>
      </trkpt>
      <trkpt lat="50.27391" lon="5.11174">
        <ele>304.55372157998</ele>
        <time>2017-06-14T17:34:05Z</time>
      </trkpt>
      <trkpt lat="50.27384" lon="5.11153">
        <ele>303.91365693472</ele>
        <time>2017-06-14T17:34:10Z</time>
      </trkpt>
      <trkpt lat="50.27392" lon="5.11157">
        <ele>302.16221981105</ele>
        <time>2017-06-14T17:34:17Z</time>
      </trkpt>
      <trkpt lat="50.27407" lon="5.11161">
        <ele>302.61929566096</ele>
        <time>2017-06-14T17:34:21Z</time>
      </trkpt>
      <trkpt lat="50.27422" lon="5.11164">
        <ele>307.98030556745</ele>
        <time>2017-06-14T17:34:25Z</time>
      </trkpt>
      <trkpt lat="50.27445" lon="5.1116">
        <ele>312.58707379416</ele>
        <time>2017-06-14T17:34:29Z</time>
      </trkpt>
      <trkpt lat="50.27491" lon="5.11145">
        <ele>309.5356560613</ele>
        <time>2017-06-14T17:34:34Z</time>
      </trkpt>
      <trkpt lat="50.27528" lon="5.11138">
        <ele>305.30241848309</ele>
        <time>2017-06-14T17:34:38Z</time>
      </trkpt>
      <trkpt lat="50.27562" lon="5.11134">
        <ele>303.00961478524</ele>
        <time>2017-06-14T17:34:42Z</time>
      </trkpt>
      <trkpt lat="50.27612" lon="5.11136">
        <ele>297.29018118507</ele>
        <time>2017-06-14T17:34:47Z</time>
      </trkpt>
      <trkpt lat="50.27665" lon="5.11139">
        <ele>293.91751962492</ele>
        <time>2017-06-14T17:34:52Z</time>
      </trkpt>
      <trkpt lat="50.27705" lon="5.1114">
        <ele>292.9811309169</ele>
        <time>2017-06-14T17:34:56Z</time>
      </trkpt>
      <trkpt lat="50.27742" lon="5.11141">
        <ele>290.50481062835</ele>
        <time>2017-06-14T17:35:00Z</time>
      </trkpt>
      <trkpt lat="50.27781" lon="5.11141">
        <ele>286.76904373889</ele>
        <time>2017-06-14T17:35:04Z</time>
      </trkpt>
      <trkpt lat="50.2782" lon="5.11142">
        <ele>283.83005701468</ele>
        <time>2017-06-14T17:35:08Z</time>
      </trkpt>
      <trkpt lat="50.27864" lon="5.11143">
        <ele>280.72402887036</ele>
        <time>2017-06-14T17:35:13Z</time>
      </trkpt>
      <trkpt lat="50.27905" lon="5.11143">
        <ele>278.926066664</ele>
        <time>2017-06-14T17:35:18Z</time>
      </trkpt>
      <trkpt lat="50.27943" lon="5.11145">
        <ele>278.73281841537</ele>
        <time>2017-06-14T17:35:23Z</time>
      </trkpt>
      <trkpt lat="50.27976" lon="5.1115">
        <ele>278.11052757995</ele>
        <time>2017-06-14T17:35:27Z</time>
      </trkpt>
      <trkpt lat="50.28019" lon="5.1116">
        <ele>275.99744270708</ele>
        <time>2017-06-14T17:35:32Z</time>
      </trkpt>
      <trkpt lat="50.28055" lon="5.11169">
        <ele>273.77143364857</ele>
        <time>2017-06-14T17:35:36Z</time>
      </trkpt>
      <trkpt lat="50.28101" lon="5.1118">
        <ele>271.02015045518</ele>
        <time>2017-06-14T17:35:41Z</time>
      </trkpt>
      <trkpt lat="50.28136" lon="5.11188">
        <ele>269.52037211768</ele>
        <time>2017-06-14T17:35:45Z</time>
      </trkpt>
      <trkpt lat="50.28173" lon="5.112">
        <ele>268.4051247734</ele>
        <time>2017-06-14T17:35:50Z</time>
      </trkpt>
      <trkpt lat="50.28204" lon="5.11216">
        <ele>267.59257336755</ele>
        <time>2017-06-14T17:35:54Z</time>
      </trkpt>
      <trkpt lat="50.28233" lon="5.11232">
        <ele>267.41914112137</ele>
        <time>2017-06-14T17:35:58Z</time>
      </trkpt>
      <trkpt lat="50.28266" lon="5.11243">
        <ele>268.0832979925</ele>
        <time>2017-06-14T17:36:03Z</time>
      </trkpt>
      <trkpt lat="50.28287" lon="5.11239">
        <ele>268.50001257541</ele>
        <time>2017-06-14T17:36:07Z</time>
      </trkpt>
      <trkpt lat="50.28305" lon="5.11234">
        <ele>268.91217712689</ele>
        <time>2017-06-14T17:36:11Z</time>
      </trkpt>
      <trkpt lat="50.2832" lon="5.11231">
        <ele>272.92302527204</ele>
        <time>2017-06-14T17:36:15Z</time>
      </trkpt>
      <trkpt lat="50.28338" lon="5.11234">
        <ele>278.31526217056</ele>
        <time>2017-06-14T17:36:20Z</time>
      </trkpt>
      <trkpt lat="50.28354" lon="5.11236">
        <ele>286.21766604315</ele>
        <time>2017-06-14T17:36:25Z</time>
      </trkpt>
      <trkpt lat="50.28374" lon="5.11243">
        <ele>290.04961397311</ele>
        <time>2017-06-14T17:36:30Z</time>
      </trkpt>
      <trkpt lat="50.2839" lon="5.11248">
        <ele>292.5583622134</ele>
        <time>2017-06-14T17:36:34Z</time>
      </trkpt>
      <trkpt lat="50.28407" lon="5.11249">
        <ele>293.09972521221</ele>
        <time>2017-06-14T17:36:38Z</time>
      </trkpt>
      <trkpt lat="50.28423" lon="5.11248">
        <ele>292.79613552809</ele>
        <time>2017-06-14T17:36:42Z</time>
      </trkpt>
      <trkpt lat="50.28441" lon="5.11242">
        <ele>292.29147595026</ele>
        <time>2017-06-14T17:36:46Z</time>
      </trkpt>
      <trkpt lat="50.2847" lon="5.11233">
        <ele>289.62580298767</ele>
        <time>2017-06-14T17:36:51Z</time>
      </trkpt>
      <trkpt lat="50.28494" lon="5.11227">
        <ele>291.19782368522</ele>
        <time>2017-06-14T17:36:55Z</time>
      </trkpt>
      <trkpt lat="50.28524" lon="5.11212">
        <ele>291.06712199754</ele>
        <time>2017-06-14T17:37:00Z</time>
      </trkpt>
      <trkpt lat="50.28546" lon="5.11193">
        <ele>289.39558891456</ele>
        <time>2017-06-14T17:37:04Z</time>
      </trkpt>
      <trkpt lat="50.28571" lon="5.11169">
        <ele>286.46593679408</ele>
        <time>2017-06-14T17:37:09Z</time>
      </trkpt>
      <trkpt lat="50.28592" lon="5.11157">
        <ele>282.55128733896</ele>
        <time>2017-06-14T17:37:13Z</time>
      </trkpt>
      <trkpt lat="50.28626" lon="5.11153">
        <ele>280.67551177531</ele>
        <time>2017-06-14T17:37:18Z</time>
      </trkpt>
      <trkpt lat="50.28652" lon="5.11151">
        <ele>280.57532451714</ele>
        <time>2017-06-14T17:37:22Z</time>
      </trkpt>
      <trkpt lat="50.28675" lon="5.11147">
        <ele>280.47821618458</ele>
        <time>2017-06-14T17:37:26Z</time>
      </trkpt>
      <trkpt lat="50.28701" lon="5.11138">
        <ele>280.08270156218</ele>
        <time>2017-06-14T17:37:31Z</time>
      </trkpt>
      <trkpt lat="50.2872" lon="5.11131">
        <ele>281.32970789985</ele>
        <time>2017-06-14T17:37:35Z</time>
      </trkpt>
      <trkpt lat="50.28736" lon="5.11122">
        <ele>283.11895962283</ele>
        <time>2017-06-14T17:37:39Z</time>
      </trkpt>
      <trkpt lat="50.28751" lon="5.11113">
        <ele>285.06574095206</ele>
        <time>2017-06-14T17:37:43Z</time>
      </trkpt>
      <trkpt lat="50.28768" lon="5.11101">
        <ele>287.76434156417</ele>
        <time>2017-06-14T17:37:48Z</time>
      </trkpt>
      <trkpt lat="50.28786" lon="5.11086">
        <ele>289.25282093148</ele>
        <time>2017-06-14T17:37:53Z</time>
      </trkpt>
      <trkpt lat="50.28803" lon="5.11072">
        <ele>290.6743957913</ele>
        <time>2017-06-14T17:37:58Z</time>
      </trkpt>
      <trkpt lat="50.28816" lon="5.11059">
        <ele>291.97816685658</ele>
        <time>2017-06-14T17:38:02Z</time>
      </trkpt>
      <trkpt lat="50.28833" lon="5.11042">
        <ele>293.85047362498</ele>
        <time>2017-06-14T17:38:07Z</time>
      </trkpt>
      <trkpt lat="50.28845" lon="5.1103">
        <ele>295.2292660076</ele>
        <time>2017-06-14T17:38:11Z</time>
      </trkpt>
      <trkpt lat="50.28862" lon="5.11013">
        <ele>295.82810939012</ele>
        <time>2017-06-14T17:38:15Z</time>
      </trkpt>
      <trkpt lat="50.2888" lon="5.10992">
        <ele>294.48397746591</ele>
        <time>2017-06-14T17:38:19Z</time>
      </trkpt>
      <trkpt lat="50.28897" lon="5.10975">
        <ele>292.77230603225</ele>
        <time>2017-06-14T17:38:23Z</time>
      </trkpt>
      <trkpt lat="50.28924" lon="5.10952">
        <ele>289.36195754923</ele>
        <time>2017-06-14T17:38:27Z</time>
      </trkpt>
      <trkpt lat="50.28971" lon="5.10915">
        <ele>284.66603201749</ele>
        <time>2017-06-14T17:38:32Z</time>
      </trkpt>
      <trkpt lat="50.29006" lon="5.10894">
        <ele>282.42265614418</ele>
        <time>2017-06-14T17:38:36Z</time>
      </trkpt>
      <trkpt lat="50.29041" lon="5.10874">
        <ele>281.7730260659</ele>
        <time>2017-06-14T17:38:40Z</time>
      </trkpt>
      <trkpt lat="50.29071" lon="5.10849">
        <ele>278.75316144778</ele>
        <time>2017-06-14T17:38:44Z</time>
      </trkpt>
      <trkpt lat="50.29109" lon="5.1083">
        <ele>277.5433344243</ele>
        <time>2017-06-14T17:38:48Z</time>
      </trkpt>
      <trkpt lat="50.29143" lon="5.10817">
        <ele>275.8427310867</ele>
        <time>2017-06-14T17:38:52Z</time>
      </trkpt>
      <trkpt lat="50.29172" lon="5.10807">
        <ele>274.1454151214</ele>
        <time>2017-06-14T17:38:56Z</time>
      </trkpt>
      <trkpt lat="50.29196" lon="5.10798">
        <ele>272.65563462551</ele>
        <time>2017-06-14T17:39:00Z</time>
      </trkpt>
      <trkpt lat="50.29218" lon="5.10791">
        <ele>271.4212739005</ele>
        <time>2017-06-14T17:39:04Z</time>
      </trkpt>
      <trkpt lat="50.29246" lon="5.1078">
        <ele>271.43304850986</ele>
        <time>2017-06-14T17:39:09Z</time>
      </trkpt>
      <trkpt lat="50.29268" lon="5.10769">
        <ele>273.53635467505</ele>
        <time>2017-06-14T17:39:13Z</time>
      </trkpt>
      <trkpt lat="50.29292" lon="5.10761">
        <ele>272.14661772549</ele>
        <time>2017-06-14T17:39:17Z</time>
      </trkpt>
      <trkpt lat="50.29308" lon="5.10749">
        <ele>270.61818922541</ele>
        <time>2017-06-14T17:39:21Z</time>
      </trkpt>
      <trkpt lat="50.29328" lon="5.10728">
        <ele>269.67653734548</ele>
        <time>2017-06-14T17:39:26Z</time>
      </trkpt>
      <trkpt lat="50.29341" lon="5.10712">
        <ele>272.67480787192</ele>
        <time>2017-06-14T17:39:30Z</time>
      </trkpt>
      <trkpt lat="50.29357" lon="5.10695">
        <ele>275.99616587806</ele>
        <time>2017-06-14T17:39:35Z</time>
      </trkpt>
      <trkpt lat="50.29373" lon="5.10698">
        <ele>275.70591097534</ele>
        <time>2017-06-14T17:39:39Z</time>
      </trkpt>
      <trkpt lat="50.29393" lon="5.10714">
        <ele>274.6433902242</ele>
        <time>2017-06-14T17:39:44Z</time>
      </trkpt>
      <trkpt lat="50.29409" lon="5.10736">
        <ele>275.69717232072</ele>
        <time>2017-06-14T17:39:49Z</time>
      </trkpt>
      <trkpt lat="50.29423" lon="5.10755">
        <ele>277.09183743506</ele>
        <time>2017-06-14T17:39:53Z</time>
      </trkpt>
      <trkpt lat="50.29438" lon="5.10778">
        <ele>277.97607779254</ele>
        <time>2017-06-14T17:39:57Z</time>
      </trkpt>
      <trkpt lat="50.29453" lon="5.10805">
        <ele>277.6046240615</ele>
        <time>2017-06-14T17:40:01Z</time>
      </trkpt>
      <trkpt lat="50.29475" lon="5.10836">
        <ele>277.41306103416</ele>
        <time>2017-06-14T17:40:06Z</time>
      </trkpt>
      <trkpt lat="50.29494" lon="5.10861">
        <ele>276.72689418852</ele>
        <time>2017-06-14T17:40:10Z</time>
      </trkpt>
      <trkpt lat="50.2951" lon="5.10884">
        <ele>276.1014141335</ele>
        <time>2017-06-14T17:40:14Z</time>
      </trkpt>
      <trkpt lat="50.29535" lon="5.10917">
        <ele>275.84265942057</ele>
        <time>2017-06-14T17:40:19Z</time>
      </trkpt>
      <trkpt lat="50.29556" lon="5.10947">
        <ele>275.08387770238</ele>
        <time>2017-06-14T17:40:24Z</time>
      </trkpt>
      <trkpt lat="50.29572" lon="5.10968">
        <ele>271.70236244048</ele>
        <time>2017-06-14T17:40:28Z</time>
      </trkpt>
      <trkpt lat="50.29588" lon="5.10973">
        <ele>271.75011644865</ele>
        <time>2017-06-14T17:40:32Z</time>
      </trkpt>
      <trkpt lat="50.29605" lon="5.10939">
        <ele>273.95668529341</ele>
        <time>2017-06-14T17:40:37Z</time>
      </trkpt>
      <trkpt lat="50.29623" lon="5.10894">
        <ele>275.1523065256</ele>
        <time>2017-06-14T17:40:42Z</time>
      </trkpt>
      <trkpt lat="50.2963" lon="5.1084">
        <ele>277.93213788778</ele>
        <time>2017-06-14T17:40:47Z</time>
      </trkpt>
      <trkpt lat="50.29626" lon="5.10783">
        <ele>278.36127630696</ele>
        <time>2017-06-14T17:40:52Z</time>
      </trkpt>
      <trkpt lat="50.2962" lon="5.10737">
        <ele>277.09063011094</ele>
        <time>2017-06-14T17:40:56Z</time>
      </trkpt>
      <trkpt lat="50.29611" lon="5.10684">
        <ele>274.00604325326</ele>
        <time>2017-06-14T17:41:01Z</time>
      </trkpt>
      <trkpt lat="50.29603" lon="5.10632">
        <ele>270.64249384641</ele>
        <time>2017-06-14T17:41:06Z</time>
      </trkpt>
      <trkpt lat="50.29602" lon="5.10601">
        <ele>270.33311806007</ele>
        <time>2017-06-14T17:41:10Z</time>
      </trkpt>
      <trkpt lat="50.29604" lon="5.10577">
        <ele>272.93590947375</ele>
        <time>2017-06-14T17:41:15Z</time>
      </trkpt>
      <trkpt lat="50.29617" lon="5.10561">
        <ele>278.19214321456</ele>
        <time>2017-06-14T17:41:19Z</time>
      </trkpt>
      <trkpt lat="50.29635" lon="5.10538">
        <ele>276.68940921339</ele>
        <time>2017-06-14T17:41:24Z</time>
      </trkpt>
      <trkpt lat="50.29643" lon="5.1051">
        <ele>273.434957239</ele>
        <time>2017-06-14T17:41:28Z</time>
      </trkpt>
      <trkpt lat="50.29636" lon="5.10478">
        <ele>275.21181620329</ele>
        <time>2017-06-14T17:41:33Z</time>
      </trkpt>
      <trkpt lat="50.29625" lon="5.10452">
        <ele>278.59125103461</ele>
        <time>2017-06-14T17:41:37Z</time>
      </trkpt>
      <trkpt lat="50.29614" lon="5.10427">
        <ele>281.16260937553</ele>
        <time>2017-06-14T17:41:41Z</time>
      </trkpt>
      <trkpt lat="50.29607" lon="5.10411">
        <ele>281.2008669248</ele>
        <time>2017-06-14T17:41:45Z</time>
      </trkpt>
      <trkpt lat="50.296" lon="5.10397">
        <ele>281.18037379764</ele>
        <time>2017-06-14T17:41:50Z</time>
      </trkpt>
      <trkpt lat="50.29597" lon="5.10387">
        <ele>281.96541284318</ele>
        <time>2017-06-14T17:41:54Z</time>
      </trkpt>
      <trkpt lat="50.29588" lon="5.10368">
        <ele>290.4349541206</ele>
        <time>2017-06-14T17:41:58Z</time>
      </trkpt>
      <trkpt lat="50.29575" lon="5.10334">
        <ele>296.44040765911</ele>
        <time>2017-06-14T17:42:03Z</time>
      </trkpt>
      <trkpt lat="50.29555" lon="5.10318">
        <ele>289.49056262627</ele>
        <time>2017-06-14T17:42:07Z</time>
      </trkpt>
      <trkpt lat="50.29536" lon="5.1029">
        <ele>283.27144902168</ele>
        <time>2017-06-14T17:42:12Z</time>
      </trkpt>
      <trkpt lat="50.29524" lon="5.10259">
        <ele>282.64602269495</ele>
        <time>2017-06-14T17:42:16Z</time>
      </trkpt>
      <trkpt lat="50.29507" lon="5.10218">
        <ele>280.78420102942</ele>
        <time>2017-06-14T17:42:21Z</time>
      </trkpt>
      <trkpt lat="50.29493" lon="5.10187">
        <ele>276.87248293012</ele>
        <time>2017-06-14T17:42:25Z</time>
      </trkpt>
      <trkpt lat="50.29487" lon="5.1016">
        <ele>274.27572472937</ele>
        <time>2017-06-14T17:42:29Z</time>
      </trkpt>
      <trkpt lat="50.29498" lon="5.10133">
        <ele>275.90033584035</ele>
        <time>2017-06-14T17:42:33Z</time>
      </trkpt>
      <trkpt lat="50.29516" lon="5.10093">
        <ele>277.68982558575</ele>
        <time>2017-06-14T17:42:38Z</time>
      </trkpt>
      <trkpt lat="50.29533" lon="5.10063">
        <ele>276.69270866335</ele>
        <time>2017-06-14T17:42:42Z</time>
      </trkpt>
      <trkpt lat="50.2955" lon="5.10038">
        <ele>273.89379623412</ele>
        <time>2017-06-14T17:42:46Z</time>
      </trkpt>
      <trkpt lat="50.29557" lon="5.10015">
        <ele>273.15526137065</ele>
        <time>2017-06-14T17:42:51Z</time>
      </trkpt>
      <trkpt lat="50.29541" lon="5.10002">
        <ele>273.74350831623</ele>
        <time>2017-06-14T17:42:55Z</time>
      </trkpt>
      <trkpt lat="50.29523" lon="5.09987">
        <ele>276.0841392317</ele>
        <time>2017-06-14T17:42:59Z</time>
      </trkpt>
      <trkpt lat="50.29498" lon="5.09969">
        <ele>280.16956614879</ele>
        <time>2017-06-14T17:43:04Z</time>
      </trkpt>
      <trkpt lat="50.29478" lon="5.09951">
        <ele>286.64204440609</ele>
        <time>2017-06-14T17:43:08Z</time>
      </trkpt>
      <trkpt lat="50.29457" lon="5.0993">
        <ele>292.11851958147</ele>
        <time>2017-06-14T17:43:12Z</time>
      </trkpt>
      <trkpt lat="50.29437" lon="5.09908">
        <ele>294.14721801514</ele>
        <time>2017-06-14T17:43:16Z</time>
      </trkpt>
      <trkpt lat="50.29414" lon="5.09882">
        <ele>290.36672970278</ele>
        <time>2017-06-14T17:43:20Z</time>
      </trkpt>
      <trkpt lat="50.29389" lon="5.09848">
        <ele>286.48917408855</ele>
        <time>2017-06-14T17:43:25Z</time>
      </trkpt>
      <trkpt lat="50.29369" lon="5.09823">
        <ele>288.13712417101</ele>
        <time>2017-06-14T17:43:29Z</time>
      </trkpt>
      <trkpt lat="50.29352" lon="5.09798">
        <ele>290.12107044178</ele>
        <time>2017-06-14T17:43:33Z</time>
      </trkpt>
      <trkpt lat="50.29346" lon="5.09777">
        <ele>289.37576359366</ele>
        <time>2017-06-14T17:43:37Z</time>
      </trkpt>
      <trkpt lat="50.29359" lon="5.09743">
        <ele>281.1576078676</ele>
        <time>2017-06-14T17:43:42Z</time>
      </trkpt>
      <trkpt lat="50.29374" lon="5.09716">
        <ele>275.02046347465</ele>
        <time>2017-06-14T17:43:46Z</time>
      </trkpt>
      <trkpt lat="50.29388" lon="5.09694">
        <ele>272.67492729222</ele>
        <time>2017-06-14T17:43:51Z</time>
      </trkpt>
      <trkpt lat="50.29395" lon="5.09676">
        <ele>272.24434940848</ele>
        <time>2017-06-14T17:43:55Z</time>
      </trkpt>
      <trkpt lat="50.29384" lon="5.09649">
        <ele>269.62627766597</ele>
        <time>2017-06-14T17:44:00Z</time>
      </trkpt>
      <trkpt lat="50.29366" lon="5.09629">
        <ele>269.33774650231</ele>
        <time>2017-06-14T17:44:05Z</time>
      </trkpt>
      <trkpt lat="50.2935" lon="5.09611">
        <ele>268.96296744619</ele>
        <time>2017-06-14T17:44:09Z</time>
      </trkpt>
      <trkpt lat="50.2933" lon="5.09592">
        <ele>266.51144059955</ele>
        <time>2017-06-14T17:44:13Z</time>
      </trkpt>
      <trkpt lat="50.29323" lon="5.09584">
        <ele>264.97309605039</ele>
        <time>2017-06-14T17:44:15Z</time>
      </trkpt>
      <trkpt lat="50.29347" lon="5.09533">
        <ele>264.40606359797</ele>
        <time>2017-06-14T17:44:30Z</time>
      </trkpt>
      <trkpt lat="50.29356" lon="5.09516">
        <ele>264.44056721696</ele>
        <time>2017-06-14T17:44:34Z</time>
      </trkpt>
      <trkpt lat="50.29401" lon="5.09563">
        <ele>262.12942327339</ele>
        <time>2017-06-14T17:45:09Z</time>
      </trkpt>
      <trkpt lat="50.29398" lon="5.09557">
        <ele>261.58743529762</ele>
        <time>2017-06-14T17:46:21Z</time>
      </trkpt>
      <trkpt lat="50.29412" lon="5.09528">
        <ele>261.54562610788</ele>
        <time>2017-06-14T17:46:26Z</time>
      </trkpt>
      <trkpt lat="50.29412" lon="5.09528">
        <ele>261.29389095024</ele>
        <time>2017-06-14T17:46:51Z</time>
      </trkpt>
      <trkpt lat="50.29412" lon="5.09528">
        <ele>261.29389095024</ele>
        <time>2017-06-14T17:46:52Z</time>
      </trkpt>
    </trkseg>
  </trk>
</gpx>